<?xml version="1.0" encoding="UTF-8" standalone="no" ?>
<gpx xmlns="http://www.topografix.com/GPX/1/1" xmlns:xsi="http://www.w3.org/2001/XMLSchema-instance" xsi:schemaLocation="http://www.topografix.com/GPX/1/1 http://www.topografix.com/GPX/1/1/gpx.xsd" version="1.1" creator="VisuGPX - https://www.visugpx.com">
  <metadata>
    <name>Cyclo : Gap/Pellautier/Sigoyer/Lardier/Tallard/Chateauvieux </name>
    <desc><![CDATA[Au menu depuis Gap la montée sur Pellautier , le col du Villard, le col de Foureyssasse avec pour finir la montée de chateauvieux ]]></desc>
  </metadata>
  <trk>
    <name><![CDATA[ACTIVE LOG 004]]></name>
    <trkseg>
      <trkpt lat="44.55188" lon="6.07107">
        <ele>746.1203613</ele>
        <time>2016-05-08T08:31:45Z</time>
      </trkpt>
      <trkpt lat="44.55155" lon="6.07067">
        <ele>746.6010742</ele>
        <time>2016-05-08T08:31:59Z</time>
      </trkpt>
      <trkpt lat="44.55119" lon="6.07024">
        <ele>746.6010742</ele>
        <time>2016-05-08T08:32:15Z</time>
      </trkpt>
      <trkpt lat="44.55076" lon="6.06976">
        <ele>747.5622559</ele>
        <time>2016-05-08T08:32:31Z</time>
      </trkpt>
      <trkpt lat="44.55045" lon="6.06939">
        <ele>747.5622559</ele>
        <time>2016-05-08T08:32:44Z</time>
      </trkpt>
      <trkpt lat="44.55022" lon="6.06908">
        <ele>748.0432129</ele>
        <time>2016-05-08T08:32:54Z</time>
      </trkpt>
      <trkpt lat="44.54979" lon="6.0686">
        <ele>748.5236816</ele>
        <time>2016-05-08T08:33:10Z</time>
      </trkpt>
      <trkpt lat="44.54929" lon="6.06799">
        <ele>749.9658203</ele>
        <time>2016-05-08T08:33:29Z</time>
      </trkpt>
      <trkpt lat="44.54899" lon="6.06769">
        <ele>750.4465332</ele>
        <time>2016-05-08T08:33:41Z</time>
      </trkpt>
      <trkpt lat="44.54861" lon="6.06722">
        <ele>750.927002</ele>
        <time>2016-05-08T08:33:56Z</time>
      </trkpt>
      <trkpt lat="44.55039" lon="6.06903">
        <ele>750.927002</ele>
        <time>2016-05-08T08:34:11Z</time>
      </trkpt>
      <trkpt lat="44.54997" lon="6.06846">
        <ele>751.4077148</ele>
        <time>2016-05-08T08:34:27Z</time>
      </trkpt>
      <trkpt lat="44.54952" lon="6.06795">
        <ele>749.0043945</ele>
        <time>2016-05-08T08:34:42Z</time>
      </trkpt>
      <trkpt lat="44.54923" lon="6.06758">
        <ele>748.0432129</ele>
        <time>2016-05-08T08:34:53Z</time>
      </trkpt>
      <trkpt lat="44.54889" lon="6.06714">
        <ele>746.6010742</ele>
        <time>2016-05-08T08:35:05Z</time>
      </trkpt>
      <trkpt lat="44.54864" lon="6.0668">
        <ele>747.081543</ele>
        <time>2016-05-08T08:35:14Z</time>
      </trkpt>
      <trkpt lat="44.54781" lon="6.06581">
        <ele>744.1977539</ele>
        <time>2016-05-08T08:35:42Z</time>
      </trkpt>
      <trkpt lat="44.54714" lon="6.06498">
        <ele>741.3137207</ele>
        <time>2016-05-08T08:36:05Z</time>
      </trkpt>
      <trkpt lat="44.54642" lon="6.06409">
        <ele>739.3911133</ele>
        <time>2016-05-08T08:36:30Z</time>
      </trkpt>
      <trkpt lat="44.54598" lon="6.06358">
        <ele>739.8718262</ele>
        <time>2016-05-08T08:36:45Z</time>
      </trkpt>
      <trkpt lat="44.54567" lon="6.06294">
        <ele>741.3137207</ele>
        <time>2016-05-08T08:37:03Z</time>
      </trkpt>
      <trkpt lat="44.54545" lon="6.06281">
        <ele>741.3137207</ele>
        <time>2016-05-08T08:37:10Z</time>
      </trkpt>
      <trkpt lat="44.54492" lon="6.06227">
        <ele>741.7944336</ele>
        <time>2016-05-08T08:37:29Z</time>
      </trkpt>
      <trkpt lat="44.54432" lon="6.06147">
        <ele>742.2751465</ele>
        <time>2016-05-08T08:37:52Z</time>
      </trkpt>
      <trkpt lat="44.54428" lon="6.06143">
        <ele>742.2751465</ele>
        <time>2016-05-08T08:37:53Z</time>
      </trkpt>
      <trkpt lat="44.54359" lon="6.0606">
        <ele>740.3525391</ele>
        <time>2016-05-08T08:38:10Z</time>
      </trkpt>
      <trkpt lat="44.54323" lon="6.06016">
        <ele>738.4299316</ele>
        <time>2016-05-08T08:38:18Z</time>
      </trkpt>
      <trkpt lat="44.543" lon="6.05992">
        <ele>738.4299316</ele>
        <time>2016-05-08T08:38:23Z</time>
      </trkpt>
      <trkpt lat="44.54273" lon="6.05959">
        <ele>737.9492188</ele>
        <time>2016-05-08T08:38:30Z</time>
      </trkpt>
      <trkpt lat="44.54239" lon="6.05913">
        <ele>738.4299316</ele>
        <time>2016-05-08T08:38:43Z</time>
      </trkpt>
      <trkpt lat="44.54184" lon="6.05845">
        <ele>741.3137207</ele>
        <time>2016-05-08T08:39:08Z</time>
      </trkpt>
      <trkpt lat="44.54147" lon="6.058">
        <ele>743.2363281</ele>
        <time>2016-05-08T08:39:26Z</time>
      </trkpt>
      <trkpt lat="44.54141" lon="6.05795">
        <ele>743.2363281</ele>
        <time>2016-05-08T08:39:29Z</time>
      </trkpt>
      <trkpt lat="44.54112" lon="6.05765">
        <ele>744.1977539</ele>
        <time>2016-05-08T08:39:42Z</time>
      </trkpt>
      <trkpt lat="44.5407" lon="6.05714">
        <ele>746.1203613</ele>
        <time>2016-05-08T08:40:04Z</time>
      </trkpt>
      <trkpt lat="44.54036" lon="6.05671">
        <ele>748.0432129</ele>
        <time>2016-05-08T08:40:23Z</time>
      </trkpt>
      <trkpt lat="44.53988" lon="6.0561">
        <ele>750.927002</ele>
        <time>2016-05-08T08:40:50Z</time>
      </trkpt>
      <trkpt lat="44.53952" lon="6.05563">
        <ele>752.8496094</ele>
        <time>2016-05-08T08:41:09Z</time>
      </trkpt>
      <trkpt lat="44.53906" lon="6.05504">
        <ele>755.7336426</ele>
        <time>2016-05-08T08:41:34Z</time>
      </trkpt>
      <trkpt lat="44.53858" lon="6.05447">
        <ele>758.6174316</ele>
        <time>2016-05-08T08:41:59Z</time>
      </trkpt>
      <trkpt lat="44.53813" lon="6.05394">
        <ele>761.020752</ele>
        <time>2016-05-08T08:42:23Z</time>
      </trkpt>
      <trkpt lat="44.53762" lon="6.05331">
        <ele>763.4240723</ele>
        <time>2016-05-08T08:42:50Z</time>
      </trkpt>
      <trkpt lat="44.53762" lon="6.05294">
        <ele>763.904541</ele>
        <time>2016-05-08T08:43:02Z</time>
      </trkpt>
      <trkpt lat="44.53786" lon="6.05243">
        <ele>765.8276367</ele>
        <time>2016-05-08T08:43:21Z</time>
      </trkpt>
      <trkpt lat="44.53793" lon="6.05186">
        <ele>767.75</ele>
        <time>2016-05-08T08:43:39Z</time>
      </trkpt>
      <trkpt lat="44.53794" lon="6.05173">
        <ele>768.2307129</ele>
        <time>2016-05-08T08:43:43Z</time>
      </trkpt>
      <trkpt lat="44.53773" lon="6.05143">
        <ele>767.75</ele>
        <time>2016-05-08T08:43:55Z</time>
      </trkpt>
      <trkpt lat="44.53768" lon="6.051">
        <ele>769.1921387</ele>
        <time>2016-05-08T08:44:08Z</time>
      </trkpt>
      <trkpt lat="44.53763" lon="6.05029">
        <ele>769.6728516</ele>
        <time>2016-05-08T08:44:26Z</time>
      </trkpt>
      <trkpt lat="44.53739" lon="6.04966">
        <ele>769.1921387</ele>
        <time>2016-05-08T08:44:41Z</time>
      </trkpt>
      <trkpt lat="44.53714" lon="6.04928">
        <ele>766.3081055</ele>
        <time>2016-05-08T08:44:50Z</time>
      </trkpt>
      <trkpt lat="44.53709" lon="6.04922">
        <ele>766.3081055</ele>
        <time>2016-05-08T08:44:52Z</time>
      </trkpt>
      <trkpt lat="44.53667" lon="6.04875">
        <ele>764.8662109</ele>
        <time>2016-05-08T08:45:05Z</time>
      </trkpt>
      <trkpt lat="44.53652" lon="6.0484">
        <ele>764.385498</ele>
        <time>2016-05-08T08:45:11Z</time>
      </trkpt>
      <trkpt lat="44.53639" lon="6.04818">
        <ele>763.904541</ele>
        <time>2016-05-08T08:45:16Z</time>
      </trkpt>
      <trkpt lat="44.53633" lon="6.0481">
        <ele>763.4240723</ele>
        <time>2016-05-08T08:45:18Z</time>
      </trkpt>
      <trkpt lat="44.53573" lon="6.04698">
        <ele>761.9821777</ele>
        <time>2016-05-08T08:45:38Z</time>
      </trkpt>
      <trkpt lat="44.53495" lon="6.04573">
        <ele>760.5400391</ele>
        <time>2016-05-08T08:46:01Z</time>
      </trkpt>
      <trkpt lat="44.53425" lon="6.04481">
        <ele>761.5014648</ele>
        <time>2016-05-08T08:46:22Z</time>
      </trkpt>
      <trkpt lat="44.53345" lon="6.04397">
        <ele>761.5014648</ele>
        <time>2016-05-08T08:46:45Z</time>
      </trkpt>
      <trkpt lat="44.53291" lon="6.04343">
        <ele>759.5788574</ele>
        <time>2016-05-08T08:47:02Z</time>
      </trkpt>
      <trkpt lat="44.53257" lon="6.04254">
        <ele>756.2141113</ele>
        <time>2016-05-08T08:47:13Z</time>
      </trkpt>
      <trkpt lat="44.53254" lon="6.04244">
        <ele>756.2141113</ele>
        <time>2016-05-08T08:47:14Z</time>
      </trkpt>
      <trkpt lat="44.53235" lon="6.04165">
        <ele>753.8110352</ele>
        <time>2016-05-08T08:47:21Z</time>
      </trkpt>
      <trkpt lat="44.53191" lon="6.04026">
        <ele>753.3303223</ele>
        <time>2016-05-08T08:47:35Z</time>
      </trkpt>
      <trkpt lat="44.53172" lon="6.03993">
        <ele>753.8110352</ele>
        <time>2016-05-08T08:47:41Z</time>
      </trkpt>
      <trkpt lat="44.53123" lon="6.0396">
        <ele>756.2141113</ele>
        <time>2016-05-08T08:47:57Z</time>
      </trkpt>
      <trkpt lat="44.53088" lon="6.03937">
        <ele>759.0981445</ele>
        <time>2016-05-08T08:48:13Z</time>
      </trkpt>
      <trkpt lat="44.53057" lon="6.03896">
        <ele>762.4626465</ele>
        <time>2016-05-08T08:48:31Z</time>
      </trkpt>
      <trkpt lat="44.53025" lon="6.03856">
        <ele>765.3469238</ele>
        <time>2016-05-08T08:48:50Z</time>
      </trkpt>
      <trkpt lat="44.52994" lon="6.03822">
        <ele>768.7114258</ele>
        <time>2016-05-08T08:49:08Z</time>
      </trkpt>
      <trkpt lat="44.52965" lon="6.03781">
        <ele>771.5952148</ele>
        <time>2016-05-08T08:49:27Z</time>
      </trkpt>
      <trkpt lat="44.5293" lon="6.03748">
        <ele>774.9599609</ele>
        <time>2016-05-08T08:49:47Z</time>
      </trkpt>
      <trkpt lat="44.52891" lon="6.03701">
        <ele>778.3244629</ele>
        <time>2016-05-08T08:50:11Z</time>
      </trkpt>
      <trkpt lat="44.5289" lon="6.0366">
        <ele>781.689209</ele>
        <time>2016-05-08T08:50:27Z</time>
      </trkpt>
      <trkpt lat="44.52908" lon="6.03622">
        <ele>785.0539551</ele>
        <time>2016-05-08T08:50:46Z</time>
      </trkpt>
      <trkpt lat="44.52907" lon="6.03557">
        <ele>787.9377441</ele>
        <time>2016-05-08T08:51:10Z</time>
      </trkpt>
      <trkpt lat="44.52868" lon="6.03508">
        <ele>789.8603516</ele>
        <time>2016-05-08T08:51:33Z</time>
      </trkpt>
      <trkpt lat="44.52818" lon="6.0345">
        <ele>790.3410645</ele>
        <time>2016-05-08T08:51:55Z</time>
      </trkpt>
      <trkpt lat="44.52763" lon="6.0342">
        <ele>790.3410645</ele>
        <time>2016-05-08T08:52:13Z</time>
      </trkpt>
      <trkpt lat="44.527" lon="6.03434">
        <ele>791.3022461</ele>
        <time>2016-05-08T08:52:31Z</time>
      </trkpt>
      <trkpt lat="44.52647" lon="6.03406">
        <ele>790.8215332</ele>
        <time>2016-05-08T08:52:47Z</time>
      </trkpt>
      <trkpt lat="44.52622" lon="6.03352">
        <ele>792.7443848</ele>
        <time>2016-05-08T08:53:02Z</time>
      </trkpt>
      <trkpt lat="44.52643" lon="6.03322">
        <ele>794.1862793</ele>
        <time>2016-05-08T08:53:14Z</time>
      </trkpt>
      <trkpt lat="44.5269" lon="6.03284">
        <ele>797.0703125</ele>
        <time>2016-05-08T08:53:36Z</time>
      </trkpt>
      <trkpt lat="44.52719" lon="6.03234">
        <ele>799.4736328</ele>
        <time>2016-05-08T08:53:54Z</time>
      </trkpt>
      <trkpt lat="44.52725" lon="6.03176">
        <ele>801.3962402</ele>
        <time>2016-05-08T08:54:12Z</time>
      </trkpt>
      <trkpt lat="44.52677" lon="6.03125">
        <ele>804.2802734</ele>
        <time>2016-05-08T08:54:36Z</time>
      </trkpt>
      <trkpt lat="44.52655" lon="6.03059">
        <ele>806.6833496</ele>
        <time>2016-05-08T08:54:57Z</time>
      </trkpt>
      <trkpt lat="44.52669" lon="6.02978">
        <ele>809.0866699</ele>
        <time>2016-05-08T08:55:19Z</time>
      </trkpt>
      <trkpt lat="44.52691" lon="6.02904">
        <ele>810.5285645</ele>
        <time>2016-05-08T08:55:39Z</time>
      </trkpt>
      <trkpt lat="44.52711" lon="6.02825">
        <ele>811.9707031</ele>
        <time>2016-05-08T08:56:00Z</time>
      </trkpt>
      <trkpt lat="44.52711" lon="6.02733">
        <ele>813.4128418</ele>
        <time>2016-05-08T08:56:23Z</time>
      </trkpt>
      <trkpt lat="44.52733" lon="6.02663">
        <ele>815.3354492</ele>
        <time>2016-05-08T08:56:43Z</time>
      </trkpt>
      <trkpt lat="44.52771" lon="6.02591">
        <ele>816.7773438</ele>
        <time>2016-05-08T08:57:06Z</time>
      </trkpt>
      <trkpt lat="44.52785" lon="6.0251">
        <ele>817.7385254</ele>
        <time>2016-05-08T08:57:27Z</time>
      </trkpt>
      <trkpt lat="44.52817" lon="6.02416">
        <ele>819.661377</ele>
        <time>2016-05-08T08:57:53Z</time>
      </trkpt>
      <trkpt lat="44.52806" lon="6.02358">
        <ele>820.1418457</ele>
        <time>2016-05-08T08:58:09Z</time>
      </trkpt>
      <trkpt lat="44.52775" lon="6.0235">
        <ele>823.0258789</ele>
        <time>2016-05-08T08:58:22Z</time>
      </trkpt>
      <trkpt lat="44.52744" lon="6.02379">
        <ele>826.3903809</ele>
        <time>2016-05-08T08:58:38Z</time>
      </trkpt>
      <trkpt lat="44.52717" lon="6.02409">
        <ele>829.2744141</ele>
        <time>2016-05-08T08:58:54Z</time>
      </trkpt>
      <trkpt lat="44.52685" lon="6.02435">
        <ele>832.6391602</ele>
        <time>2016-05-08T08:59:10Z</time>
      </trkpt>
      <trkpt lat="44.52657" lon="6.02464">
        <ele>836.0036621</ele>
        <time>2016-05-08T08:59:26Z</time>
      </trkpt>
      <trkpt lat="44.52633" lon="6.02497">
        <ele>838.8876953</ele>
        <time>2016-05-08T08:59:43Z</time>
      </trkpt>
      <trkpt lat="44.52607" lon="6.02522">
        <ele>842.2521973</ele>
        <time>2016-05-08T09:00:01Z</time>
      </trkpt>
      <trkpt lat="44.5258" lon="6.02544">
        <ele>845.1362305</ele>
        <time>2016-05-08T09:00:19Z</time>
      </trkpt>
      <trkpt lat="44.52553" lon="6.02579">
        <ele>848.5007324</ele>
        <time>2016-05-08T09:00:40Z</time>
      </trkpt>
      <trkpt lat="44.52527" lon="6.02608">
        <ele>850.9040527</ele>
        <time>2016-05-08T09:00:59Z</time>
      </trkpt>
      <trkpt lat="44.52498" lon="6.02615">
        <ele>853.7880859</ele>
        <time>2016-05-08T09:01:15Z</time>
      </trkpt>
      <trkpt lat="44.52465" lon="6.02612">
        <ele>857.1525879</ele>
        <time>2016-05-08T09:01:34Z</time>
      </trkpt>
      <trkpt lat="44.52432" lon="6.02613">
        <ele>860.0366211</ele>
        <time>2016-05-08T09:01:54Z</time>
      </trkpt>
      <trkpt lat="44.52402" lon="6.02612">
        <ele>862.4399414</ele>
        <time>2016-05-08T09:02:11Z</time>
      </trkpt>
      <trkpt lat="44.52371" lon="6.02611">
        <ele>865.3239746</ele>
        <time>2016-05-08T09:02:28Z</time>
      </trkpt>
      <trkpt lat="44.52344" lon="6.02608">
        <ele>867.7270508</ele>
        <time>2016-05-08T09:02:43Z</time>
      </trkpt>
      <trkpt lat="44.52313" lon="6.02607">
        <ele>870.611084</ele>
        <time>2016-05-08T09:03:00Z</time>
      </trkpt>
      <trkpt lat="44.52279" lon="6.02596">
        <ele>873.9755859</ele>
        <time>2016-05-08T09:03:20Z</time>
      </trkpt>
      <trkpt lat="44.52245" lon="6.02578">
        <ele>876.8598633</ele>
        <time>2016-05-08T09:03:41Z</time>
      </trkpt>
      <trkpt lat="44.52213" lon="6.02568">
        <ele>880.2243652</ele>
        <time>2016-05-08T09:03:59Z</time>
      </trkpt>
      <trkpt lat="44.52182" lon="6.02545">
        <ele>883.5888672</ele>
        <time>2016-05-08T09:04:18Z</time>
      </trkpt>
      <trkpt lat="44.52156" lon="6.02522">
        <ele>886.4729004</ele>
        <time>2016-05-08T09:04:36Z</time>
      </trkpt>
      <trkpt lat="44.52123" lon="6.02502">
        <ele>889.8374023</ele>
        <time>2016-05-08T09:04:57Z</time>
      </trkpt>
      <trkpt lat="44.52096" lon="6.02474">
        <ele>893.2021484</ele>
        <time>2016-05-08T09:05:16Z</time>
      </trkpt>
      <trkpt lat="44.52074" lon="6.02447">
        <ele>896.0861816</ele>
        <time>2016-05-08T09:05:35Z</time>
      </trkpt>
      <trkpt lat="44.52072" lon="6.02445">
        <ele>896.0861816</ele>
        <time>2016-05-08T09:05:36Z</time>
      </trkpt>
      <trkpt lat="44.52043" lon="6.02417">
        <ele>899.4506836</ele>
        <time>2016-05-08T09:05:58Z</time>
      </trkpt>
      <trkpt lat="44.52028" lon="6.02377">
        <ele>902.3344727</ele>
        <time>2016-05-08T09:06:18Z</time>
      </trkpt>
      <trkpt lat="44.5203" lon="6.02333">
        <ele>905.2185059</ele>
        <time>2016-05-08T09:06:38Z</time>
      </trkpt>
      <trkpt lat="44.52025" lon="6.02287">
        <ele>908.583252</ele>
        <time>2016-05-08T09:06:58Z</time>
      </trkpt>
      <trkpt lat="44.52" lon="6.02257">
        <ele>910.5058594</ele>
        <time>2016-05-08T09:07:16Z</time>
      </trkpt>
      <trkpt lat="44.51957" lon="6.02238">
        <ele>912.9091797</ele>
        <time>2016-05-08T09:07:39Z</time>
      </trkpt>
      <trkpt lat="44.51912" lon="6.02235">
        <ele>914.3510742</ele>
        <time>2016-05-08T09:07:57Z</time>
      </trkpt>
      <trkpt lat="44.51841" lon="6.02224">
        <ele>914.3510742</ele>
        <time>2016-05-08T09:08:22Z</time>
      </trkpt>
      <trkpt lat="44.51799" lon="6.02233">
        <ele>915.3125</ele>
        <time>2016-05-08T09:08:36Z</time>
      </trkpt>
      <trkpt lat="44.51745" lon="6.02226">
        <ele>917.2351074</ele>
        <time>2016-05-08T09:08:58Z</time>
      </trkpt>
      <trkpt lat="44.51699" lon="6.02201">
        <ele>918.677002</ele>
        <time>2016-05-08T09:09:18Z</time>
      </trkpt>
      <trkpt lat="44.51659" lon="6.022">
        <ele>920.1188965</ele>
        <time>2016-05-08T09:09:35Z</time>
      </trkpt>
      <trkpt lat="44.51619" lon="6.02201">
        <ele>921.560791</ele>
        <time>2016-05-08T09:09:52Z</time>
      </trkpt>
      <trkpt lat="44.51584" lon="6.02184">
        <ele>923.4836426</ele>
        <time>2016-05-08T09:10:08Z</time>
      </trkpt>
      <trkpt lat="44.51548" lon="6.02151">
        <ele>926.3676758</ele>
        <time>2016-05-08T09:10:29Z</time>
      </trkpt>
      <trkpt lat="44.51515" lon="6.02124">
        <ele>929.2514648</ele>
        <time>2016-05-08T09:10:52Z</time>
      </trkpt>
      <trkpt lat="44.5149" lon="6.02088">
        <ele>931.6547852</ele>
        <time>2016-05-08T09:11:12Z</time>
      </trkpt>
      <trkpt lat="44.51469" lon="6.02062">
        <ele>934.0581055</ele>
        <time>2016-05-08T09:11:27Z</time>
      </trkpt>
      <trkpt lat="44.5146" lon="6.02006">
        <ele>936.9418945</ele>
        <time>2016-05-08T09:11:50Z</time>
      </trkpt>
      <trkpt lat="44.5147" lon="6.01951">
        <ele>938.3840332</ele>
        <time>2016-05-08T09:12:12Z</time>
      </trkpt>
      <trkpt lat="44.51515" lon="6.01947">
        <ele>940.7873535</ele>
        <time>2016-05-08T09:12:35Z</time>
      </trkpt>
      <trkpt lat="44.51557" lon="6.01934">
        <ele>942.7102051</ele>
        <time>2016-05-08T09:12:58Z</time>
      </trkpt>
      <trkpt lat="44.51566" lon="6.0193">
        <ele>943.6713867</ele>
        <time>2016-05-08T09:13:03Z</time>
      </trkpt>
      <trkpt lat="44.5157" lon="6.01926">
        <ele>944.1520996</ele>
        <time>2016-05-08T09:13:06Z</time>
      </trkpt>
      <trkpt lat="44.51605" lon="6.01905">
        <ele>946.5554199</ele>
        <time>2016-05-08T09:13:28Z</time>
      </trkpt>
      <trkpt lat="44.51639" lon="6.01879">
        <ele>949.439209</ele>
        <time>2016-05-08T09:13:50Z</time>
      </trkpt>
      <trkpt lat="44.51654" lon="6.01828">
        <ele>951.3618164</ele>
        <time>2016-05-08T09:14:13Z</time>
      </trkpt>
      <trkpt lat="44.51649" lon="6.01768">
        <ele>954.7263184</ele>
        <time>2016-05-08T09:14:38Z</time>
      </trkpt>
      <trkpt lat="44.51637" lon="6.01714">
        <ele>958.0913086</ele>
        <time>2016-05-08T09:15:00Z</time>
      </trkpt>
      <trkpt lat="44.51632" lon="6.01663">
        <ele>960.9750977</ele>
        <time>2016-05-08T09:15:22Z</time>
      </trkpt>
      <trkpt lat="44.51644" lon="6.01613">
        <ele>961.9365234</ele>
        <time>2016-05-08T09:15:40Z</time>
      </trkpt>
      <trkpt lat="44.51649" lon="6.01591">
        <ele>961.4558105</ele>
        <time>2016-05-08T09:15:44Z</time>
      </trkpt>
      <trkpt lat="44.51641" lon="6.01524">
        <ele>960.9750977</ele>
        <time>2016-05-08T09:15:57Z</time>
      </trkpt>
      <trkpt lat="44.51626" lon="6.01488">
        <ele>962.4169922</ele>
        <time>2016-05-08T09:16:12Z</time>
      </trkpt>
      <trkpt lat="44.51605" lon="6.01454">
        <ele>965.3010254</ele>
        <time>2016-05-08T09:16:29Z</time>
      </trkpt>
      <trkpt lat="44.51573" lon="6.01417">
        <ele>968.1848145</ele>
        <time>2016-05-08T09:16:53Z</time>
      </trkpt>
      <trkpt lat="44.5155" lon="6.0137">
        <ele>970.5881348</ele>
        <time>2016-05-08T09:17:15Z</time>
      </trkpt>
      <trkpt lat="44.51551" lon="6.01319">
        <ele>972.9916992</ele>
        <time>2016-05-08T09:17:35Z</time>
      </trkpt>
      <trkpt lat="44.51552" lon="6.01302">
        <ele>973.9528809</ele>
        <time>2016-05-08T09:17:43Z</time>
      </trkpt>
      <trkpt lat="44.51551" lon="6.01236">
        <ele>975.8754883</ele>
        <time>2016-05-08T09:18:09Z</time>
      </trkpt>
      <trkpt lat="44.51541" lon="6.01183">
        <ele>976.3562012</ele>
        <time>2016-05-08T09:18:27Z</time>
      </trkpt>
      <trkpt lat="44.51517" lon="6.01145">
        <ele>977.7980957</ele>
        <time>2016-05-08T09:18:44Z</time>
      </trkpt>
      <trkpt lat="44.51502" lon="6.01089">
        <ele>980.6821289</ele>
        <time>2016-05-08T09:19:05Z</time>
      </trkpt>
      <trkpt lat="44.51476" lon="6.01035">
        <ele>983.0852051</ele>
        <time>2016-05-08T09:19:28Z</time>
      </trkpt>
      <trkpt lat="44.51433" lon="6.01006">
        <ele>984.5273438</ele>
        <time>2016-05-08T09:19:50Z</time>
      </trkpt>
      <trkpt lat="44.51378" lon="6.00981">
        <ele>986.9304199</ele>
        <time>2016-05-08T09:20:15Z</time>
      </trkpt>
      <trkpt lat="44.51312" lon="6.0094">
        <ele>990.2954102</ele>
        <time>2016-05-08T09:20:45Z</time>
      </trkpt>
      <trkpt lat="44.51267" lon="6.00893">
        <ele>990.7758789</ele>
        <time>2016-05-08T09:21:05Z</time>
      </trkpt>
      <trkpt lat="44.51245" lon="6.00817">
        <ele>991.2565918</ele>
        <time>2016-05-08T09:21:24Z</time>
      </trkpt>
      <trkpt lat="44.51231" lon="6.00704">
        <ele>991.7373047</ele>
        <time>2016-05-08T09:21:48Z</time>
      </trkpt>
      <trkpt lat="44.51211" lon="6.00585">
        <ele>993.1791992</ele>
        <time>2016-05-08T09:22:13Z</time>
      </trkpt>
      <trkpt lat="44.51193" lon="6.00488">
        <ele>995.1018066</ele>
        <time>2016-05-08T09:22:36Z</time>
      </trkpt>
      <trkpt lat="44.51173" lon="6.00374">
        <ele>995.5825195</ele>
        <time>2016-05-08T09:23:00Z</time>
      </trkpt>
      <trkpt lat="44.51155" lon="6.00262">
        <ele>996.0632324</ele>
        <time>2016-05-08T09:23:22Z</time>
      </trkpt>
      <trkpt lat="44.51165" lon="6.0013">
        <ele>997.0244141</ele>
        <time>2016-05-08T09:23:48Z</time>
      </trkpt>
      <trkpt lat="44.51161" lon="6.00039">
        <ele>997.505127</ele>
        <time>2016-05-08T09:24:06Z</time>
      </trkpt>
      <trkpt lat="44.51118" lon="5.99998">
        <ele>997.9858398</ele>
        <time>2016-05-08T09:24:20Z</time>
      </trkpt>
      <trkpt lat="44.51074" lon="5.99949">
        <ele>999.9084473</ele>
        <time>2016-05-08T09:24:39Z</time>
      </trkpt>
      <trkpt lat="44.51044" lon="5.99869">
        <ele>1001.8310547</ele>
        <time>2016-05-08T09:25:01Z</time>
      </trkpt>
      <trkpt lat="44.51037" lon="5.99803">
        <ele>1002.7922363</ele>
        <time>2016-05-08T09:25:18Z</time>
      </trkpt>
      <trkpt lat="44.51064" lon="5.99737">
        <ele>1002.7922363</ele>
        <time>2016-05-08T09:25:36Z</time>
      </trkpt>
      <trkpt lat="44.51097" lon="5.99676">
        <ele>1003.7536621</ele>
        <time>2016-05-08T09:25:53Z</time>
      </trkpt>
      <trkpt lat="44.51088" lon="5.99616">
        <ele>1003.7536621</ele>
        <time>2016-05-08T09:26:06Z</time>
      </trkpt>
      <trkpt lat="44.51037" lon="5.99524">
        <ele>1005.1958008</ele>
        <time>2016-05-08T09:26:32Z</time>
      </trkpt>
      <trkpt lat="44.51003" lon="5.9944">
        <ele>1008.079834</ele>
        <time>2016-05-08T09:26:58Z</time>
      </trkpt>
      <trkpt lat="44.51003" lon="5.99364">
        <ele>1010.0021973</ele>
        <time>2016-05-08T09:27:19Z</time>
      </trkpt>
      <trkpt lat="44.51008" lon="5.9929">
        <ele>1011.9250488</ele>
        <time>2016-05-08T09:27:39Z</time>
      </trkpt>
      <trkpt lat="44.50989" lon="5.99233">
        <ele>1012.8862305</ele>
        <time>2016-05-08T09:27:56Z</time>
      </trkpt>
      <trkpt lat="44.50945" lon="5.99215">
        <ele>1014.8088379</ele>
        <time>2016-05-08T09:28:14Z</time>
      </trkpt>
      <trkpt lat="44.50873" lon="5.99202">
        <ele>1017.692627</ele>
        <time>2016-05-08T09:28:41Z</time>
      </trkpt>
      <trkpt lat="44.50821" lon="5.99195">
        <ele>1019.1347656</ele>
        <time>2016-05-08T09:29:01Z</time>
      </trkpt>
      <trkpt lat="44.50778" lon="5.992">
        <ele>1021.5380859</ele>
        <time>2016-05-08T09:29:19Z</time>
      </trkpt>
      <trkpt lat="44.5074" lon="5.99227">
        <ele>1022.0187988</ele>
        <time>2016-05-08T09:29:36Z</time>
      </trkpt>
      <trkpt lat="44.507" lon="5.9929">
        <ele>1022.4995117</ele>
        <time>2016-05-08T09:29:56Z</time>
      </trkpt>
      <trkpt lat="44.50665" lon="5.99365">
        <ele>1022.9802246</ele>
        <time>2016-05-08T09:30:18Z</time>
      </trkpt>
      <trkpt lat="44.50639" lon="5.99419">
        <ele>1024.4221191</ele>
        <time>2016-05-08T09:30:33Z</time>
      </trkpt>
      <trkpt lat="44.50594" lon="5.99458">
        <ele>1025.3833008</ele>
        <time>2016-05-08T09:30:50Z</time>
      </trkpt>
      <trkpt lat="44.50528" lon="5.99499">
        <ele>1026.3447266</ele>
        <time>2016-05-08T09:31:14Z</time>
      </trkpt>
      <trkpt lat="44.50471" lon="5.99523">
        <ele>1026.3447266</ele>
        <time>2016-05-08T09:31:34Z</time>
      </trkpt>
      <trkpt lat="44.50407" lon="5.99519">
        <ele>1027.3061523</ele>
        <time>2016-05-08T09:31:54Z</time>
      </trkpt>
      <trkpt lat="44.50347" lon="5.99522">
        <ele>1028.267334</ele>
        <time>2016-05-08T09:32:13Z</time>
      </trkpt>
      <trkpt lat="44.50302" lon="5.99531">
        <ele>1029.2285156</ele>
        <time>2016-05-08T09:32:29Z</time>
      </trkpt>
      <trkpt lat="44.50263" lon="5.99538">
        <ele>1030.1899414</ele>
        <time>2016-05-08T09:32:41Z</time>
      </trkpt>
      <trkpt lat="44.50196" lon="5.99508">
        <ele>1031.1513672</ele>
        <time>2016-05-08T09:33:02Z</time>
      </trkpt>
      <trkpt lat="44.50138" lon="5.9949">
        <ele>1033.5544434</ele>
        <time>2016-05-08T09:33:23Z</time>
      </trkpt>
      <trkpt lat="44.5008" lon="5.99492">
        <ele>1034.996582</ele>
        <time>2016-05-08T09:33:44Z</time>
      </trkpt>
      <trkpt lat="44.50021" lon="5.99513">
        <ele>1036.9191895</ele>
        <time>2016-05-08T09:34:08Z</time>
      </trkpt>
      <trkpt lat="44.49982" lon="5.99529">
        <ele>1037.8806152</ele>
        <time>2016-05-08T09:34:25Z</time>
      </trkpt>
      <trkpt lat="44.49917" lon="5.99546">
        <ele>1040.2839355</ele>
        <time>2016-05-08T09:34:49Z</time>
      </trkpt>
      <trkpt lat="44.49847" lon="5.99552">
        <ele>1042.6872559</ele>
        <time>2016-05-08T09:35:15Z</time>
      </trkpt>
      <trkpt lat="44.49792" lon="5.9955">
        <ele>1044.1291504</ele>
        <time>2016-05-08T09:35:36Z</time>
      </trkpt>
      <trkpt lat="44.49743" lon="5.9953">
        <ele>1046.0517578</ele>
        <time>2016-05-08T09:35:57Z</time>
      </trkpt>
      <trkpt lat="44.49701" lon="5.99486">
        <ele>1048.454834</ele>
        <time>2016-05-08T09:36:18Z</time>
      </trkpt>
      <trkpt lat="44.4971" lon="5.9943">
        <ele>1047.4936523</ele>
        <time>2016-05-08T09:36:30Z</time>
      </trkpt>
      <trkpt lat="44.49746" lon="5.99376">
        <ele>1047.0129395</ele>
        <time>2016-05-08T09:36:46Z</time>
      </trkpt>
      <trkpt lat="44.4978" lon="5.99315">
        <ele>1047.0129395</ele>
        <time>2016-05-08T09:37:04Z</time>
      </trkpt>
      <trkpt lat="44.498" lon="5.99214">
        <ele>1047.0129395</ele>
        <time>2016-05-08T09:37:26Z</time>
      </trkpt>
      <trkpt lat="44.4979" lon="5.99103">
        <ele>1046.0517578</ele>
        <time>2016-05-08T09:37:49Z</time>
      </trkpt>
      <trkpt lat="44.49773" lon="5.99007">
        <ele>1046.5324707</ele>
        <time>2016-05-08T09:38:09Z</time>
      </trkpt>
      <trkpt lat="44.49733" lon="5.98963">
        <ele>1046.5324707</ele>
        <time>2016-05-08T09:38:24Z</time>
      </trkpt>
      <trkpt lat="44.49664" lon="5.989">
        <ele>1047.4936523</ele>
        <time>2016-05-08T09:38:47Z</time>
      </trkpt>
      <trkpt lat="44.49634" lon="5.9881">
        <ele>1047.4936523</ele>
        <time>2016-05-08T09:39:06Z</time>
      </trkpt>
      <trkpt lat="44.49613" lon="5.98681">
        <ele>1047.4936523</ele>
        <time>2016-05-08T09:39:31Z</time>
      </trkpt>
      <trkpt lat="44.4957" lon="5.98654">
        <ele>1047.4936523</ele>
        <time>2016-05-08T09:39:44Z</time>
      </trkpt>
      <trkpt lat="44.49549" lon="5.98648">
        <ele>1047.4936523</ele>
        <time>2016-05-08T09:39:49Z</time>
      </trkpt>
      <trkpt lat="44.49474" lon="5.98606">
        <ele>1046.5324707</ele>
        <time>2016-05-08T09:40:10Z</time>
      </trkpt>
      <trkpt lat="44.494" lon="5.9859">
        <ele>1047.9743652</ele>
        <time>2016-05-08T09:40:31Z</time>
      </trkpt>
      <trkpt lat="44.49312" lon="5.9857">
        <ele>1046.5324707</ele>
        <time>2016-05-08T09:40:56Z</time>
      </trkpt>
      <trkpt lat="44.49232" lon="5.98553">
        <ele>1046.0517578</ele>
        <time>2016-05-08T09:41:14Z</time>
      </trkpt>
      <trkpt lat="44.49148" lon="5.98534">
        <ele>1046.0517578</ele>
        <time>2016-05-08T09:41:34Z</time>
      </trkpt>
      <trkpt lat="44.49063" lon="5.98544">
        <ele>1047.4936523</ele>
        <time>2016-05-08T09:41:57Z</time>
      </trkpt>
      <trkpt lat="44.48984" lon="5.98563">
        <ele>1048.454834</ele>
        <time>2016-05-08T09:42:18Z</time>
      </trkpt>
      <trkpt lat="44.489" lon="5.98583">
        <ele>1048.9355469</ele>
        <time>2016-05-08T09:42:40Z</time>
      </trkpt>
      <trkpt lat="44.4881" lon="5.98607">
        <ele>1048.9355469</ele>
        <time>2016-05-08T09:43:01Z</time>
      </trkpt>
      <trkpt lat="44.48758" lon="5.9862">
        <ele>1048.454834</ele>
        <time>2016-05-08T09:43:13Z</time>
      </trkpt>
      <trkpt lat="44.48678" lon="5.98624">
        <ele>1047.9743652</ele>
        <time>2016-05-08T09:43:30Z</time>
      </trkpt>
      <trkpt lat="44.48602" lon="5.98602">
        <ele>1048.454834</ele>
        <time>2016-05-08T09:43:47Z</time>
      </trkpt>
      <trkpt lat="44.48558" lon="5.98552">
        <ele>1048.454834</ele>
        <time>2016-05-08T09:44:01Z</time>
      </trkpt>
      <trkpt lat="44.48506" lon="5.98502">
        <ele>1048.9355469</ele>
        <time>2016-05-08T09:44:17Z</time>
      </trkpt>
      <trkpt lat="44.48428" lon="5.98495">
        <ele>1049.4162598</ele>
        <time>2016-05-08T09:44:37Z</time>
      </trkpt>
      <trkpt lat="44.48406" lon="5.98504">
        <ele>1049.4162598</ele>
        <time>2016-05-08T09:44:43Z</time>
      </trkpt>
      <trkpt lat="44.48375" lon="5.98521">
        <ele>1049.4162598</ele>
        <time>2016-05-08T09:44:51Z</time>
      </trkpt>
      <trkpt lat="44.48354" lon="5.98523">
        <ele>1049.4162598</ele>
        <time>2016-05-08T09:44:56Z</time>
      </trkpt>
      <trkpt lat="44.48331" lon="5.98515">
        <ele>1049.4162598</ele>
        <time>2016-05-08T09:45:01Z</time>
      </trkpt>
      <trkpt lat="44.48317" lon="5.98502">
        <ele>1049.4162598</ele>
        <time>2016-05-08T09:45:04Z</time>
      </trkpt>
      <trkpt lat="44.48276" lon="5.98433">
        <ele>1045.5710449</ele>
        <time>2016-05-08T09:45:13Z</time>
      </trkpt>
      <trkpt lat="44.48271" lon="5.98424">
        <ele>1045.5710449</ele>
        <time>2016-05-08T09:45:14Z</time>
      </trkpt>
      <trkpt lat="44.4823" lon="5.98346">
        <ele>1042.206543</ele>
        <time>2016-05-08T09:45:22Z</time>
      </trkpt>
      <trkpt lat="44.48215" lon="5.98314">
        <ele>1041.2451172</ele>
        <time>2016-05-08T09:45:25Z</time>
      </trkpt>
      <trkpt lat="44.48192" lon="5.9827">
        <ele>1037.8806152</ele>
        <time>2016-05-08T09:45:29Z</time>
      </trkpt>
      <trkpt lat="44.48186" lon="5.98259">
        <ele>1037.8806152</ele>
        <time>2016-05-08T09:45:30Z</time>
      </trkpt>
      <trkpt lat="44.48155" lon="5.98204">
        <ele>1034.0351563</ele>
        <time>2016-05-08T09:45:36Z</time>
      </trkpt>
      <trkpt lat="44.48151" lon="5.98197">
        <ele>1034.0351563</ele>
        <time>2016-05-08T09:45:37Z</time>
      </trkpt>
      <trkpt lat="44.48119" lon="5.98142">
        <ele>1030.1899414</ele>
        <time>2016-05-08T09:45:45Z</time>
      </trkpt>
      <trkpt lat="44.48115" lon="5.98136">
        <ele>1030.1899414</ele>
        <time>2016-05-08T09:45:46Z</time>
      </trkpt>
      <trkpt lat="44.48093" lon="5.98104">
        <ele>1028.267334</ele>
        <time>2016-05-08T09:45:51Z</time>
      </trkpt>
      <trkpt lat="44.4804" lon="5.98024">
        <ele>1024.902832</ele>
        <time>2016-05-08T09:46:01Z</time>
      </trkpt>
      <trkpt lat="44.48015" lon="5.97989">
        <ele>1022.9802246</ele>
        <time>2016-05-08T09:46:05Z</time>
      </trkpt>
      <trkpt lat="44.47965" lon="5.97914">
        <ele>1018.6540527</ele>
        <time>2016-05-08T09:46:13Z</time>
      </trkpt>
      <trkpt lat="44.47959" lon="5.97905">
        <ele>1018.6540527</ele>
        <time>2016-05-08T09:46:14Z</time>
      </trkpt>
      <trkpt lat="44.47936" lon="5.9787">
        <ele>1018.1733398</ele>
        <time>2016-05-08T09:46:18Z</time>
      </trkpt>
      <trkpt lat="44.47925" lon="5.97847">
        <ele>1015.7702637</ele>
        <time>2016-05-08T09:46:21Z</time>
      </trkpt>
      <trkpt lat="44.47917" lon="5.97833">
        <ele>1015.7702637</ele>
        <time>2016-05-08T09:46:23Z</time>
      </trkpt>
      <trkpt lat="44.47859" lon="5.97757">
        <ele>1014.328125</ele>
        <time>2016-05-08T09:46:38Z</time>
      </trkpt>
      <trkpt lat="44.47818" lon="5.97701">
        <ele>1017.2121582</ele>
        <time>2016-05-08T09:46:55Z</time>
      </trkpt>
      <trkpt lat="44.47779" lon="5.97633">
        <ele>1018.1733398</ele>
        <time>2016-05-08T09:47:15Z</time>
      </trkpt>
      <trkpt lat="44.4774" lon="5.97558">
        <ele>1021.0576172</ele>
        <time>2016-05-08T09:47:38Z</time>
      </trkpt>
      <trkpt lat="44.47716" lon="5.97534">
        <ele>1022.0187988</ele>
        <time>2016-05-08T09:47:52Z</time>
      </trkpt>
      <trkpt lat="44.47714" lon="5.97535">
        <ele>1022.0187988</ele>
        <time>2016-05-08T09:48:07Z</time>
      </trkpt>
      <trkpt lat="44.47718" lon="5.9754">
        <ele>1022.0187988</ele>
        <time>2016-05-08T09:48:48Z</time>
      </trkpt>
      <trkpt lat="44.47719" lon="5.97538">
        <ele>1021.5380859</ele>
        <time>2016-05-08T09:49:27Z</time>
      </trkpt>
      <trkpt lat="44.47714" lon="5.97534">
        <ele>1021.0576172</ele>
        <time>2016-05-08T09:50:09Z</time>
      </trkpt>
      <trkpt lat="44.47713" lon="5.97534">
        <ele>1022.0187988</ele>
        <time>2016-05-08T09:50:26Z</time>
      </trkpt>
      <trkpt lat="44.47712" lon="5.97533">
        <ele>1021.0576172</ele>
        <time>2016-05-08T09:51:28Z</time>
      </trkpt>
      <trkpt lat="44.47713" lon="5.97534">
        <ele>1021.5380859</ele>
        <time>2016-05-08T09:52:04Z</time>
      </trkpt>
      <trkpt lat="44.47722" lon="5.97504">
        <ele>1023.4609375</ele>
        <time>2016-05-08T09:52:17Z</time>
      </trkpt>
      <trkpt lat="44.47727" lon="5.9746">
        <ele>1023.9414063</ele>
        <time>2016-05-08T09:52:30Z</time>
      </trkpt>
      <trkpt lat="44.47738" lon="5.97389">
        <ele>1023.9414063</ele>
        <time>2016-05-08T09:52:49Z</time>
      </trkpt>
      <trkpt lat="44.47775" lon="5.97366">
        <ele>1023.4609375</ele>
        <time>2016-05-08T09:53:00Z</time>
      </trkpt>
      <trkpt lat="44.47797" lon="5.97315">
        <ele>1023.4609375</ele>
        <time>2016-05-08T09:53:12Z</time>
      </trkpt>
      <trkpt lat="44.47766" lon="5.97283">
        <ele>1023.4609375</ele>
        <time>2016-05-08T09:53:22Z</time>
      </trkpt>
      <trkpt lat="44.47715" lon="5.97252">
        <ele>1022.4995117</ele>
        <time>2016-05-08T09:53:36Z</time>
      </trkpt>
      <trkpt lat="44.47673" lon="5.97168">
        <ele>1022.4995117</ele>
        <time>2016-05-08T09:53:55Z</time>
      </trkpt>
      <trkpt lat="44.47615" lon="5.97061">
        <ele>1021.5380859</ele>
        <time>2016-05-08T09:54:20Z</time>
      </trkpt>
      <trkpt lat="44.47549" lon="5.96995">
        <ele>1021.5380859</ele>
        <time>2016-05-08T09:54:41Z</time>
      </trkpt>
      <trkpt lat="44.47499" lon="5.96925">
        <ele>1021.5380859</ele>
        <time>2016-05-08T09:55:01Z</time>
      </trkpt>
      <trkpt lat="44.47502" lon="5.96907">
        <ele>1021.5380859</ele>
        <time>2016-05-08T09:55:05Z</time>
      </trkpt>
      <trkpt lat="44.47543" lon="5.96836">
        <ele>1019.6154785</ele>
        <time>2016-05-08T09:55:17Z</time>
      </trkpt>
      <trkpt lat="44.47546" lon="5.96826">
        <ele>1019.6154785</ele>
        <time>2016-05-08T09:55:18Z</time>
      </trkpt>
      <trkpt lat="44.47549" lon="5.96785">
        <ele>1017.692627</ele>
        <time>2016-05-08T09:55:22Z</time>
      </trkpt>
      <trkpt lat="44.47583" lon="5.96691">
        <ele>1014.8088379</ele>
        <time>2016-05-08T09:55:32Z</time>
      </trkpt>
      <trkpt lat="44.47578" lon="5.9665">
        <ele>1013.8474121</ele>
        <time>2016-05-08T09:55:38Z</time>
      </trkpt>
      <trkpt lat="44.47569" lon="5.96641">
        <ele>1013.8474121</ele>
        <time>2016-05-08T09:55:40Z</time>
      </trkpt>
      <trkpt lat="44.47538" lon="5.96641">
        <ele>1013.3669434</ele>
        <time>2016-05-08T09:55:46Z</time>
      </trkpt>
      <trkpt lat="44.47492" lon="5.96676">
        <ele>1014.328125</ele>
        <time>2016-05-08T09:55:58Z</time>
      </trkpt>
      <trkpt lat="44.47479" lon="5.96693">
        <ele>1014.328125</ele>
        <time>2016-05-08T09:56:03Z</time>
      </trkpt>
      <trkpt lat="44.47453" lon="5.96744">
        <ele>1014.328125</ele>
        <time>2016-05-08T09:56:15Z</time>
      </trkpt>
      <trkpt lat="44.47434" lon="5.96749">
        <ele>1014.328125</ele>
        <time>2016-05-08T09:56:19Z</time>
      </trkpt>
      <trkpt lat="44.47337" lon="5.96753">
        <ele>1012.4055176</ele>
        <time>2016-05-08T09:56:36Z</time>
      </trkpt>
      <trkpt lat="44.47284" lon="5.96768">
        <ele>1009.0410156</ele>
        <time>2016-05-08T09:56:43Z</time>
      </trkpt>
      <trkpt lat="44.47276" lon="5.96772">
        <ele>1009.0410156</ele>
        <time>2016-05-08T09:56:44Z</time>
      </trkpt>
      <trkpt lat="44.47268" lon="5.96776">
        <ele>1008.079834</ele>
        <time>2016-05-08T09:56:45Z</time>
      </trkpt>
      <trkpt lat="44.47232" lon="5.96776">
        <ele>1008.5603027</ele>
        <time>2016-05-08T09:56:50Z</time>
      </trkpt>
      <trkpt lat="44.47213" lon="5.96765">
        <ele>1008.079834</ele>
        <time>2016-05-08T09:56:55Z</time>
      </trkpt>
      <trkpt lat="44.47127" lon="5.96755">
        <ele>1007.1184082</ele>
        <time>2016-05-08T09:57:13Z</time>
      </trkpt>
      <trkpt lat="44.47054" lon="5.96796">
        <ele>1004.7150879</ele>
        <time>2016-05-08T09:57:25Z</time>
      </trkpt>
      <trkpt lat="44.46956" lon="5.96836">
        <ele>1002.7922363</ele>
        <time>2016-05-08T09:57:41Z</time>
      </trkpt>
      <trkpt lat="44.46926" lon="5.96836">
        <ele>1002.3115234</ele>
        <time>2016-05-08T09:57:46Z</time>
      </trkpt>
      <trkpt lat="44.46803" lon="5.96777">
        <ele>998.9470215</ele>
        <time>2016-05-08T09:58:08Z</time>
      </trkpt>
      <trkpt lat="44.46712" lon="5.96738">
        <ele>998.4663086</ele>
        <time>2016-05-08T09:58:27Z</time>
      </trkpt>
      <trkpt lat="44.46627" lon="5.96701">
        <ele>997.9858398</ele>
        <time>2016-05-08T09:58:49Z</time>
      </trkpt>
      <trkpt lat="44.46536" lon="5.96658">
        <ele>997.9858398</ele>
        <time>2016-05-08T09:59:16Z</time>
      </trkpt>
      <trkpt lat="44.46491" lon="5.96667">
        <ele>997.505127</ele>
        <time>2016-05-08T09:59:28Z</time>
      </trkpt>
      <trkpt lat="44.46455" lon="5.96718">
        <ele>997.0244141</ele>
        <time>2016-05-08T09:59:40Z</time>
      </trkpt>
      <trkpt lat="44.46433" lon="5.9673">
        <ele>997.9858398</ele>
        <time>2016-05-08T09:59:46Z</time>
      </trkpt>
      <trkpt lat="44.46349" lon="5.96759">
        <ele>997.505127</ele>
        <time>2016-05-08T10:00:08Z</time>
      </trkpt>
      <trkpt lat="44.46293" lon="5.96772">
        <ele>998.9470215</ele>
        <time>2016-05-08T10:00:23Z</time>
      </trkpt>
      <trkpt lat="44.46246" lon="5.96836">
        <ele>1000.3891602</ele>
        <time>2016-05-08T10:00:40Z</time>
      </trkpt>
      <trkpt lat="44.46224" lon="5.96896">
        <ele>1000.8696289</ele>
        <time>2016-05-08T10:00:53Z</time>
      </trkpt>
      <trkpt lat="44.46198" lon="5.96968">
        <ele>1000.8696289</ele>
        <time>2016-05-08T10:01:08Z</time>
      </trkpt>
      <trkpt lat="44.46163" lon="5.96981">
        <ele>1001.3503418</ele>
        <time>2016-05-08T10:01:18Z</time>
      </trkpt>
      <trkpt lat="44.46156" lon="5.96987">
        <ele>1001.3503418</ele>
        <time>2016-05-08T10:01:20Z</time>
      </trkpt>
      <trkpt lat="44.46119" lon="5.9707">
        <ele>1001.3503418</ele>
        <time>2016-05-08T10:01:37Z</time>
      </trkpt>
      <trkpt lat="44.46115" lon="5.97091">
        <ele>1001.3503418</ele>
        <time>2016-05-08T10:01:41Z</time>
      </trkpt>
      <trkpt lat="44.46085" lon="5.97119">
        <ele>1001.8310547</ele>
        <time>2016-05-08T10:01:50Z</time>
      </trkpt>
      <trkpt lat="44.46023" lon="5.97164">
        <ele>1002.3115234</ele>
        <time>2016-05-08T10:02:08Z</time>
      </trkpt>
      <trkpt lat="44.45982" lon="5.97236">
        <ele>1003.2729492</ele>
        <time>2016-05-08T10:02:25Z</time>
      </trkpt>
      <trkpt lat="44.4596" lon="5.97309">
        <ele>1003.7536621</ele>
        <time>2016-05-08T10:02:40Z</time>
      </trkpt>
      <trkpt lat="44.45939" lon="5.9739">
        <ele>1003.7536621</ele>
        <time>2016-05-08T10:02:58Z</time>
      </trkpt>
      <trkpt lat="44.45969" lon="5.97447">
        <ele>1002.7922363</ele>
        <time>2016-05-08T10:03:12Z</time>
      </trkpt>
      <trkpt lat="44.46028" lon="5.97486">
        <ele>1003.7536621</ele>
        <time>2016-05-08T10:03:30Z</time>
      </trkpt>
      <trkpt lat="44.4603" lon="5.97537">
        <ele>1004.7150879</ele>
        <time>2016-05-08T10:03:41Z</time>
      </trkpt>
      <trkpt lat="44.4599" lon="5.97652">
        <ele>1005.1958008</ele>
        <time>2016-05-08T10:04:07Z</time>
      </trkpt>
      <trkpt lat="44.45952" lon="5.97686">
        <ele>1006.6376953</ele>
        <time>2016-05-08T10:04:20Z</time>
      </trkpt>
      <trkpt lat="44.45905" lon="5.97715">
        <ele>1006.6376953</ele>
        <time>2016-05-08T10:04:35Z</time>
      </trkpt>
      <trkpt lat="44.45871" lon="5.978">
        <ele>1006.1569824</ele>
        <time>2016-05-08T10:04:54Z</time>
      </trkpt>
      <trkpt lat="44.45863" lon="5.97884">
        <ele>1007.5991211</ele>
        <time>2016-05-08T10:05:12Z</time>
      </trkpt>
      <trkpt lat="44.45815" lon="5.97981">
        <ele>1010.0021973</ele>
        <time>2016-05-08T10:05:37Z</time>
      </trkpt>
      <trkpt lat="44.45764" lon="5.98067">
        <ele>1010.963623</ele>
        <time>2016-05-08T10:06:01Z</time>
      </trkpt>
      <trkpt lat="44.45716" lon="5.98101">
        <ele>1012.4055176</ele>
        <time>2016-05-08T10:06:22Z</time>
      </trkpt>
      <trkpt lat="44.4568" lon="5.98133">
        <ele>1015.7702637</ele>
        <time>2016-05-08T10:06:45Z</time>
      </trkpt>
      <trkpt lat="44.45644" lon="5.98162">
        <ele>1017.692627</ele>
        <time>2016-05-08T10:07:07Z</time>
      </trkpt>
      <trkpt lat="44.45607" lon="5.98178">
        <ele>1021.0576172</ele>
        <time>2016-05-08T10:07:29Z</time>
      </trkpt>
      <trkpt lat="44.45568" lon="5.98185">
        <ele>1023.9414063</ele>
        <time>2016-05-08T10:07:52Z</time>
      </trkpt>
      <trkpt lat="44.45529" lon="5.98195">
        <ele>1027.3061523</ele>
        <time>2016-05-08T10:08:15Z</time>
      </trkpt>
      <trkpt lat="44.45494" lon="5.98205">
        <ele>1030.1899414</ele>
        <time>2016-05-08T10:08:36Z</time>
      </trkpt>
      <trkpt lat="44.45458" lon="5.9822">
        <ele>1032.5932617</ele>
        <time>2016-05-08T10:08:59Z</time>
      </trkpt>
      <trkpt lat="44.45425" lon="5.98231">
        <ele>1035.4770508</ele>
        <time>2016-05-08T10:09:20Z</time>
      </trkpt>
      <trkpt lat="44.4539" lon="5.98239">
        <ele>1038.842041</ele>
        <time>2016-05-08T10:09:43Z</time>
      </trkpt>
      <trkpt lat="44.45359" lon="5.98237">
        <ele>1040.7644043</ele>
        <time>2016-05-08T10:10:03Z</time>
      </trkpt>
      <trkpt lat="44.45326" lon="5.98232">
        <ele>1044.1291504</ele>
        <time>2016-05-08T10:10:24Z</time>
      </trkpt>
      <trkpt lat="44.45301" lon="5.98223">
        <ele>1046.0517578</ele>
        <time>2016-05-08T10:10:41Z</time>
      </trkpt>
      <trkpt lat="44.45267" lon="5.98211">
        <ele>1048.9355469</ele>
        <time>2016-05-08T10:11:04Z</time>
      </trkpt>
      <trkpt lat="44.45236" lon="5.98187">
        <ele>1049.8969727</ele>
        <time>2016-05-08T10:11:24Z</time>
      </trkpt>
      <trkpt lat="44.45209" lon="5.98165">
        <ele>1049.4162598</ele>
        <time>2016-05-08T10:11:36Z</time>
      </trkpt>
      <trkpt lat="44.45206" lon="5.98161">
        <ele>1048.9355469</ele>
        <time>2016-05-08T10:11:50Z</time>
      </trkpt>
      <trkpt lat="44.45205" lon="5.98162">
        <ele>1048.9355469</ele>
        <time>2016-05-08T10:12:24Z</time>
      </trkpt>
      <trkpt lat="44.45205" lon="5.98164">
        <ele>1049.8969727</ele>
        <time>2016-05-08T10:12:33Z</time>
      </trkpt>
      <trkpt lat="44.45206" lon="5.98164">
        <ele>1047.0129395</ele>
        <time>2016-05-08T10:13:25Z</time>
      </trkpt>
      <trkpt lat="44.45207" lon="5.98165">
        <ele>1048.454834</ele>
        <time>2016-05-08T10:14:16Z</time>
      </trkpt>
      <trkpt lat="44.45207" lon="5.98166">
        <ele>1047.9743652</ele>
        <time>2016-05-08T10:14:23Z</time>
      </trkpt>
      <trkpt lat="44.45188" lon="5.98182">
        <ele>1048.454834</ele>
        <time>2016-05-08T10:14:30Z</time>
      </trkpt>
      <trkpt lat="44.45171" lon="5.98205">
        <ele>1047.9743652</ele>
        <time>2016-05-08T10:14:34Z</time>
      </trkpt>
      <trkpt lat="44.45163" lon="5.98222">
        <ele>1046.5324707</ele>
        <time>2016-05-08T10:14:36Z</time>
      </trkpt>
      <trkpt lat="44.4515" lon="5.98249">
        <ele>1043.6484375</ele>
        <time>2016-05-08T10:14:39Z</time>
      </trkpt>
      <trkpt lat="44.45131" lon="5.98273">
        <ele>1042.206543</ele>
        <time>2016-05-08T10:14:42Z</time>
      </trkpt>
      <trkpt lat="44.45106" lon="5.98293">
        <ele>1039.8032227</ele>
        <time>2016-05-08T10:14:45Z</time>
      </trkpt>
      <trkpt lat="44.45087" lon="5.98301">
        <ele>1037.3999023</ele>
        <time>2016-05-08T10:14:47Z</time>
      </trkpt>
      <trkpt lat="44.45078" lon="5.98304">
        <ele>1035.4770508</ele>
        <time>2016-05-08T10:14:48Z</time>
      </trkpt>
      <trkpt lat="44.45038" lon="5.98311">
        <ele>1032.5932617</ele>
        <time>2016-05-08T10:14:52Z</time>
      </trkpt>
      <trkpt lat="44.4502" lon="5.98313">
        <ele>1030.6706543</ele>
        <time>2016-05-08T10:14:54Z</time>
      </trkpt>
      <trkpt lat="44.45004" lon="5.98316">
        <ele>1028.7480469</ele>
        <time>2016-05-08T10:14:56Z</time>
      </trkpt>
      <trkpt lat="44.44987" lon="5.98317">
        <ele>1024.4221191</ele>
        <time>2016-05-08T10:14:58Z</time>
      </trkpt>
      <trkpt lat="44.44979" lon="5.98317">
        <ele>1024.4221191</ele>
        <time>2016-05-08T10:14:59Z</time>
      </trkpt>
      <trkpt lat="44.44965" lon="5.98318">
        <ele>1022.9802246</ele>
        <time>2016-05-08T10:15:01Z</time>
      </trkpt>
      <trkpt lat="44.4495" lon="5.9832">
        <ele>1021.5380859</ele>
        <time>2016-05-08T10:15:03Z</time>
      </trkpt>
      <trkpt lat="44.44927" lon="5.98324">
        <ele>1020.0961914</ele>
        <time>2016-05-08T10:15:06Z</time>
      </trkpt>
      <trkpt lat="44.44913" lon="5.98329">
        <ele>1018.6540527</ele>
        <time>2016-05-08T10:15:08Z</time>
      </trkpt>
      <trkpt lat="44.44891" lon="5.98355">
        <ele>1015.7702637</ele>
        <time>2016-05-08T10:15:12Z</time>
      </trkpt>
      <trkpt lat="44.44888" lon="5.98364">
        <ele>1015.7702637</ele>
        <time>2016-05-08T10:15:13Z</time>
      </trkpt>
      <trkpt lat="44.44886" lon="5.98383">
        <ele>1013.8474121</ele>
        <time>2016-05-08T10:15:15Z</time>
      </trkpt>
      <trkpt lat="44.44886" lon="5.98403">
        <ele>1011.9250488</ele>
        <time>2016-05-08T10:15:17Z</time>
      </trkpt>
      <trkpt lat="44.44886" lon="5.98414">
        <ele>1010.4829102</ele>
        <time>2016-05-08T10:15:18Z</time>
      </trkpt>
      <trkpt lat="44.44881" lon="5.98434">
        <ele>1008.5603027</ele>
        <time>2016-05-08T10:15:20Z</time>
      </trkpt>
      <trkpt lat="44.44878" lon="5.98443">
        <ele>1007.5991211</ele>
        <time>2016-05-08T10:15:21Z</time>
      </trkpt>
      <trkpt lat="44.44878" lon="5.98469">
        <ele>1006.1569824</ele>
        <time>2016-05-08T10:15:24Z</time>
      </trkpt>
      <trkpt lat="44.44885" lon="5.98487">
        <ele>1005.1958008</ele>
        <time>2016-05-08T10:15:26Z</time>
      </trkpt>
      <trkpt lat="44.44893" lon="5.98508">
        <ele>1002.3115234</ele>
        <time>2016-05-08T10:15:28Z</time>
      </trkpt>
      <trkpt lat="44.44889" lon="5.98536">
        <ele>1000.8696289</ele>
        <time>2016-05-08T10:15:31Z</time>
      </trkpt>
      <trkpt lat="44.44851" lon="5.98558">
        <ele>997.9858398</ele>
        <time>2016-05-08T10:15:36Z</time>
      </trkpt>
      <trkpt lat="44.44832" lon="5.9856">
        <ele>996.5439453</ele>
        <time>2016-05-08T10:15:38Z</time>
      </trkpt>
      <trkpt lat="44.44813" lon="5.98559">
        <ele>995.1018066</ele>
        <time>2016-05-08T10:15:40Z</time>
      </trkpt>
      <trkpt lat="44.44784" lon="5.98561">
        <ele>992.2180176</ele>
        <time>2016-05-08T10:15:43Z</time>
      </trkpt>
      <trkpt lat="44.44764" lon="5.98561">
        <ele>990.7758789</ele>
        <time>2016-05-08T10:15:45Z</time>
      </trkpt>
      <trkpt lat="44.44745" lon="5.98558">
        <ele>988.3728027</ele>
        <time>2016-05-08T10:15:47Z</time>
      </trkpt>
      <trkpt lat="44.44725" lon="5.98557">
        <ele>984.5273438</ele>
        <time>2016-05-08T10:15:49Z</time>
      </trkpt>
      <trkpt lat="44.44716" lon="5.98557">
        <ele>984.5273438</ele>
        <time>2016-05-08T10:15:50Z</time>
      </trkpt>
      <trkpt lat="44.44706" lon="5.98556">
        <ele>984.0466309</ele>
        <time>2016-05-08T10:15:51Z</time>
      </trkpt>
      <trkpt lat="44.4468" lon="5.98561">
        <ele>982.1240234</ele>
        <time>2016-05-08T10:15:54Z</time>
      </trkpt>
      <trkpt lat="44.44654" lon="5.98569">
        <ele>979.2399902</ele>
        <time>2016-05-08T10:15:57Z</time>
      </trkpt>
      <trkpt lat="44.44638" lon="5.98577">
        <ele>977.7980957</ele>
        <time>2016-05-08T10:15:59Z</time>
      </trkpt>
      <trkpt lat="44.44622" lon="5.98585">
        <ele>976.3562012</ele>
        <time>2016-05-08T10:16:01Z</time>
      </trkpt>
      <trkpt lat="44.44597" lon="5.98597">
        <ele>973.4724121</ele>
        <time>2016-05-08T10:16:04Z</time>
      </trkpt>
      <trkpt lat="44.4458" lon="5.98606">
        <ele>972.5109863</ele>
        <time>2016-05-08T10:16:06Z</time>
      </trkpt>
      <trkpt lat="44.44565" lon="5.98612">
        <ele>971.0688477</ele>
        <time>2016-05-08T10:16:08Z</time>
      </trkpt>
      <trkpt lat="44.44531" lon="5.98621">
        <ele>967.7041016</ele>
        <time>2016-05-08T10:16:12Z</time>
      </trkpt>
      <trkpt lat="44.44523" lon="5.98624">
        <ele>967.7041016</ele>
        <time>2016-05-08T10:16:13Z</time>
      </trkpt>
      <trkpt lat="44.44499" lon="5.98631">
        <ele>965.7817383</ele>
        <time>2016-05-08T10:16:16Z</time>
      </trkpt>
      <trkpt lat="44.44484" lon="5.98639">
        <ele>963.8588867</ele>
        <time>2016-05-08T10:16:18Z</time>
      </trkpt>
      <trkpt lat="44.4447" lon="5.98645">
        <ele>961.9365234</ele>
        <time>2016-05-08T10:16:20Z</time>
      </trkpt>
      <trkpt lat="44.44462" lon="5.98649">
        <ele>960.9750977</ele>
        <time>2016-05-08T10:16:21Z</time>
      </trkpt>
      <trkpt lat="44.44442" lon="5.98664">
        <ele>959.5332031</ele>
        <time>2016-05-08T10:16:24Z</time>
      </trkpt>
      <trkpt lat="44.4442" lon="5.98675">
        <ele>956.6491699</ele>
        <time>2016-05-08T10:16:27Z</time>
      </trkpt>
      <trkpt lat="44.44391" lon="5.98683">
        <ele>954.2458496</ele>
        <time>2016-05-08T10:16:31Z</time>
      </trkpt>
      <trkpt lat="44.44384" lon="5.98685">
        <ele>953.2844238</ele>
        <time>2016-05-08T10:16:32Z</time>
      </trkpt>
      <trkpt lat="44.44369" lon="5.98685">
        <ele>951.8425293</ele>
        <time>2016-05-08T10:16:34Z</time>
      </trkpt>
      <trkpt lat="44.44323" lon="5.98677">
        <ele>947.9973145</ele>
        <time>2016-05-08T10:16:40Z</time>
      </trkpt>
      <trkpt lat="44.44314" lon="5.98676">
        <ele>947.9973145</ele>
        <time>2016-05-08T10:16:41Z</time>
      </trkpt>
      <trkpt lat="44.44279" lon="5.98668">
        <ele>945.5939941</ele>
        <time>2016-05-08T10:16:45Z</time>
      </trkpt>
      <trkpt lat="44.44255" lon="5.98659">
        <ele>943.1906738</ele>
        <time>2016-05-08T10:16:48Z</time>
      </trkpt>
      <trkpt lat="44.44241" lon="5.98657">
        <ele>940.7873535</ele>
        <time>2016-05-08T10:16:50Z</time>
      </trkpt>
      <trkpt lat="44.44234" lon="5.98656">
        <ele>939.3452148</ele>
        <time>2016-05-08T10:16:51Z</time>
      </trkpt>
      <trkpt lat="44.44213" lon="5.98661">
        <ele>937.9033203</ele>
        <time>2016-05-08T10:16:54Z</time>
      </trkpt>
      <trkpt lat="44.44206" lon="5.98665">
        <ele>937.4226074</ele>
        <time>2016-05-08T10:16:55Z</time>
      </trkpt>
      <trkpt lat="44.44192" lon="5.98674">
        <ele>935.5</ele>
        <time>2016-05-08T10:16:57Z</time>
      </trkpt>
      <trkpt lat="44.44155" lon="5.98674">
        <ele>932.6162109</ele>
        <time>2016-05-08T10:17:02Z</time>
      </trkpt>
      <trkpt lat="44.4414" lon="5.98667">
        <ele>931.1743164</ele>
        <time>2016-05-08T10:17:04Z</time>
      </trkpt>
      <trkpt lat="44.44127" lon="5.98653">
        <ele>930.2128906</ele>
        <time>2016-05-08T10:17:06Z</time>
      </trkpt>
      <trkpt lat="44.44115" lon="5.98637">
        <ele>929.2514648</ele>
        <time>2016-05-08T10:17:08Z</time>
      </trkpt>
      <trkpt lat="44.44101" lon="5.98612">
        <ele>926.8483887</ele>
        <time>2016-05-08T10:17:11Z</time>
      </trkpt>
      <trkpt lat="44.44089" lon="5.98588">
        <ele>924.9257813</ele>
        <time>2016-05-08T10:17:14Z</time>
      </trkpt>
      <trkpt lat="44.44049" lon="5.98545">
        <ele>922.0415039</ele>
        <time>2016-05-08T10:17:21Z</time>
      </trkpt>
      <trkpt lat="44.44019" lon="5.98528">
        <ele>919.6384277</ele>
        <time>2016-05-08T10:17:25Z</time>
      </trkpt>
      <trkpt lat="44.44003" lon="5.98519">
        <ele>917.7155762</ele>
        <time>2016-05-08T10:17:27Z</time>
      </trkpt>
      <trkpt lat="44.43968" lon="5.985">
        <ele>913.8703613</ele>
        <time>2016-05-08T10:17:31Z</time>
      </trkpt>
      <trkpt lat="44.4396" lon="5.98496">
        <ele>913.8703613</ele>
        <time>2016-05-08T10:17:32Z</time>
      </trkpt>
      <trkpt lat="44.43943" lon="5.98485">
        <ele>912.4284668</ele>
        <time>2016-05-08T10:17:34Z</time>
      </trkpt>
      <trkpt lat="44.43928" lon="5.98474">
        <ele>910.5058594</ele>
        <time>2016-05-08T10:17:36Z</time>
      </trkpt>
      <trkpt lat="44.43892" lon="5.98443">
        <ele>908.1027832</ele>
        <time>2016-05-08T10:17:41Z</time>
      </trkpt>
      <trkpt lat="44.43878" lon="5.98433">
        <ele>906.6604004</ele>
        <time>2016-05-08T10:17:43Z</time>
      </trkpt>
      <trkpt lat="44.43866" lon="5.98427">
        <ele>905.2185059</ele>
        <time>2016-05-08T10:17:45Z</time>
      </trkpt>
      <trkpt lat="44.43846" lon="5.9843">
        <ele>902.3344727</ele>
        <time>2016-05-08T10:17:48Z</time>
      </trkpt>
      <trkpt lat="44.43834" lon="5.98442">
        <ele>900.8925781</ele>
        <time>2016-05-08T10:17:50Z</time>
      </trkpt>
      <trkpt lat="44.43824" lon="5.98454">
        <ele>898.9699707</ele>
        <time>2016-05-08T10:17:52Z</time>
      </trkpt>
      <trkpt lat="44.43807" lon="5.98461">
        <ele>896.5668945</ele>
        <time>2016-05-08T10:17:55Z</time>
      </trkpt>
      <trkpt lat="44.43794" lon="5.98455">
        <ele>896.0861816</ele>
        <time>2016-05-08T10:17:57Z</time>
      </trkpt>
      <trkpt lat="44.43766" lon="5.98439">
        <ele>892.2409668</ele>
        <time>2016-05-08T10:18:02Z</time>
      </trkpt>
      <trkpt lat="44.43729" lon="5.98399">
        <ele>889.8374023</ele>
        <time>2016-05-08T10:18:09Z</time>
      </trkpt>
      <trkpt lat="44.4372" lon="5.98387">
        <ele>887.9147949</ele>
        <time>2016-05-08T10:18:11Z</time>
      </trkpt>
      <trkpt lat="44.43704" lon="5.98369">
        <ele>884.550293</ele>
        <time>2016-05-08T10:18:15Z</time>
      </trkpt>
      <trkpt lat="44.43681" lon="5.98354">
        <ele>883.1081543</ele>
        <time>2016-05-08T10:18:22Z</time>
      </trkpt>
      <trkpt lat="44.43648" lon="5.98372">
        <ele>880.2243652</ele>
        <time>2016-05-08T10:18:29Z</time>
      </trkpt>
      <trkpt lat="44.43632" lon="5.98392">
        <ele>878.3017578</ele>
        <time>2016-05-08T10:18:32Z</time>
      </trkpt>
      <trkpt lat="44.4361" lon="5.98422">
        <ele>875.8981934</ele>
        <time>2016-05-08T10:18:36Z</time>
      </trkpt>
      <trkpt lat="44.43592" lon="5.98446">
        <ele>873.0144043</ele>
        <time>2016-05-08T10:18:39Z</time>
      </trkpt>
      <trkpt lat="44.43585" lon="5.98453">
        <ele>871.0917969</ele>
        <time>2016-05-08T10:18:40Z</time>
      </trkpt>
      <trkpt lat="44.43562" lon="5.98473">
        <ele>869.6499023</ele>
        <time>2016-05-08T10:18:43Z</time>
      </trkpt>
      <trkpt lat="44.43546" lon="5.98486">
        <ele>866.2851563</ele>
        <time>2016-05-08T10:18:45Z</time>
      </trkpt>
      <trkpt lat="44.43539" lon="5.98491">
        <ele>866.2851563</ele>
        <time>2016-05-08T10:18:46Z</time>
      </trkpt>
      <trkpt lat="44.43527" lon="5.98501">
        <ele>864.3625488</ele>
        <time>2016-05-08T10:18:48Z</time>
      </trkpt>
      <trkpt lat="44.43521" lon="5.98505">
        <ele>862.4399414</ele>
        <time>2016-05-08T10:18:49Z</time>
      </trkpt>
      <trkpt lat="44.435" lon="5.98506">
        <ele>860.517334</ele>
        <time>2016-05-08T10:18:53Z</time>
      </trkpt>
      <trkpt lat="44.43491" lon="5.98466">
        <ele>858.5944824</ele>
        <time>2016-05-08T10:18:58Z</time>
      </trkpt>
      <trkpt lat="44.43493" lon="5.98444">
        <ele>858.1140137</ele>
        <time>2016-05-08T10:19:00Z</time>
      </trkpt>
      <trkpt lat="44.43497" lon="5.9842">
        <ele>856.671875</ele>
        <time>2016-05-08T10:19:02Z</time>
      </trkpt>
      <trkpt lat="44.43505" lon="5.98355">
        <ele>853.307373</ele>
        <time>2016-05-08T10:19:07Z</time>
      </trkpt>
      <trkpt lat="44.43506" lon="5.98343">
        <ele>852.8266602</ele>
        <time>2016-05-08T10:19:08Z</time>
      </trkpt>
      <trkpt lat="44.43507" lon="5.98307">
        <ele>851.3847656</ele>
        <time>2016-05-08T10:19:11Z</time>
      </trkpt>
      <trkpt lat="44.43503" lon="5.98226">
        <ele>849.4621582</ele>
        <time>2016-05-08T10:19:21Z</time>
      </trkpt>
      <trkpt lat="44.43502" lon="5.98212">
        <ele>848.5007324</ele>
        <time>2016-05-08T10:19:23Z</time>
      </trkpt>
      <trkpt lat="44.4351" lon="5.98169">
        <ele>845.6169434</ele>
        <time>2016-05-08T10:19:30Z</time>
      </trkpt>
      <trkpt lat="44.4352" lon="5.98146">
        <ele>842.2521973</ele>
        <time>2016-05-08T10:19:36Z</time>
      </trkpt>
      <trkpt lat="44.43526" lon="5.98138">
        <ele>841.2907715</ele>
        <time>2016-05-08T10:19:40Z</time>
      </trkpt>
      <trkpt lat="44.43509" lon="5.98129">
        <ele>840.3295898</ele>
        <time>2016-05-08T10:19:49Z</time>
      </trkpt>
      <trkpt lat="44.43499" lon="5.98133">
        <ele>839.848877</ele>
        <time>2016-05-08T10:19:51Z</time>
      </trkpt>
      <trkpt lat="44.43483" lon="5.9814">
        <ele>839.848877</ele>
        <time>2016-05-08T10:19:54Z</time>
      </trkpt>
      <trkpt lat="44.43461" lon="5.98158">
        <ele>836.9648438</ele>
        <time>2016-05-08T10:19:59Z</time>
      </trkpt>
      <trkpt lat="44.43446" lon="5.98172">
        <ele>835.0424805</ele>
        <time>2016-05-08T10:20:02Z</time>
      </trkpt>
      <trkpt lat="44.43419" lon="5.98209">
        <ele>833.6003418</ele>
        <time>2016-05-08T10:20:07Z</time>
      </trkpt>
      <trkpt lat="44.43349" lon="5.98272">
        <ele>830.2358398</ele>
        <time>2016-05-08T10:20:17Z</time>
      </trkpt>
      <trkpt lat="44.43335" lon="5.98279">
        <ele>829.2744141</ele>
        <time>2016-05-08T10:20:19Z</time>
      </trkpt>
      <trkpt lat="44.43322" lon="5.98282">
        <ele>828.3132324</ele>
        <time>2016-05-08T10:20:21Z</time>
      </trkpt>
      <trkpt lat="44.43307" lon="5.9828">
        <ele>827.3518066</ele>
        <time>2016-05-08T10:20:23Z</time>
      </trkpt>
      <trkpt lat="44.43286" lon="5.98272">
        <ele>825.909668</ele>
        <time>2016-05-08T10:20:26Z</time>
      </trkpt>
      <trkpt lat="44.43273" lon="5.98263">
        <ele>823.9870605</ele>
        <time>2016-05-08T10:20:28Z</time>
      </trkpt>
      <trkpt lat="44.43233" lon="5.98215">
        <ele>820.1418457</ele>
        <time>2016-05-08T10:20:35Z</time>
      </trkpt>
      <trkpt lat="44.43222" lon="5.98204">
        <ele>819.661377</ele>
        <time>2016-05-08T10:20:37Z</time>
      </trkpt>
      <trkpt lat="44.43182" lon="5.98149">
        <ele>816.7773438</ele>
        <time>2016-05-08T10:20:44Z</time>
      </trkpt>
      <trkpt lat="44.43133" lon="5.98054">
        <ele>813.4128418</ele>
        <time>2016-05-08T10:20:54Z</time>
      </trkpt>
      <trkpt lat="44.43104" lon="5.97971">
        <ele>811.0092773</ele>
        <time>2016-05-08T10:21:02Z</time>
      </trkpt>
      <trkpt lat="44.43083" lon="5.979">
        <ele>808.605957</ele>
        <time>2016-05-08T10:21:09Z</time>
      </trkpt>
      <trkpt lat="44.43062" lon="5.97811">
        <ele>805.722168</ele>
        <time>2016-05-08T10:21:18Z</time>
      </trkpt>
      <trkpt lat="44.4306" lon="5.97785">
        <ele>804.7607422</ele>
        <time>2016-05-08T10:21:21Z</time>
      </trkpt>
      <trkpt lat="44.43032" lon="5.97766">
        <ele>803.7995605</ele>
        <time>2016-05-08T10:21:28Z</time>
      </trkpt>
      <trkpt lat="44.43026" lon="5.97768">
        <ele>803.7995605</ele>
        <time>2016-05-08T10:21:29Z</time>
      </trkpt>
      <trkpt lat="44.42982" lon="5.97784">
        <ele>801.8769531</ele>
        <time>2016-05-08T10:21:37Z</time>
      </trkpt>
      <trkpt lat="44.42961" lon="5.97815">
        <ele>800.4350586</ele>
        <time>2016-05-08T10:21:42Z</time>
      </trkpt>
      <trkpt lat="44.42958" lon="5.97835">
        <ele>799.9543457</ele>
        <time>2016-05-08T10:21:44Z</time>
      </trkpt>
      <trkpt lat="44.42939" lon="5.97883">
        <ele>797.5510254</ele>
        <time>2016-05-08T10:21:49Z</time>
      </trkpt>
      <trkpt lat="44.42902" lon="5.9796">
        <ele>793.7055664</ele>
        <time>2016-05-08T10:21:57Z</time>
      </trkpt>
      <trkpt lat="44.42899" lon="5.98007">
        <ele>792.7443848</ele>
        <time>2016-05-08T10:22:01Z</time>
      </trkpt>
      <trkpt lat="44.42907" lon="5.98059">
        <ele>790.3410645</ele>
        <time>2016-05-08T10:22:05Z</time>
      </trkpt>
      <trkpt lat="44.42924" lon="5.98165">
        <ele>786.4958496</ele>
        <time>2016-05-08T10:22:13Z</time>
      </trkpt>
      <trkpt lat="44.42934" lon="5.98251">
        <ele>782.1699219</ele>
        <time>2016-05-08T10:22:20Z</time>
      </trkpt>
      <trkpt lat="44.42935" lon="5.9826">
        <ele>782.1699219</ele>
        <time>2016-05-08T10:22:21Z</time>
      </trkpt>
      <trkpt lat="44.42935" lon="5.98297">
        <ele>779.2856445</ele>
        <time>2016-05-08T10:22:26Z</time>
      </trkpt>
      <trkpt lat="44.42904" lon="5.98337">
        <ele>777.84375</ele>
        <time>2016-05-08T10:22:33Z</time>
      </trkpt>
      <trkpt lat="44.42897" lon="5.98339">
        <ele>776.8825684</ele>
        <time>2016-05-08T10:22:34Z</time>
      </trkpt>
      <trkpt lat="44.42823" lon="5.98335">
        <ele>773.5180664</ele>
        <time>2016-05-08T10:22:43Z</time>
      </trkpt>
      <trkpt lat="44.42799" lon="5.98329">
        <ele>771.1147461</ele>
        <time>2016-05-08T10:22:46Z</time>
      </trkpt>
      <trkpt lat="44.42759" lon="5.98335">
        <ele>768.7114258</ele>
        <time>2016-05-08T10:22:51Z</time>
      </trkpt>
      <trkpt lat="44.42728" lon="5.9833">
        <ele>766.7888184</ele>
        <time>2016-05-08T10:22:55Z</time>
      </trkpt>
      <trkpt lat="44.42707" lon="5.9832">
        <ele>765.8276367</ele>
        <time>2016-05-08T10:22:58Z</time>
      </trkpt>
      <trkpt lat="44.42695" lon="5.98313">
        <ele>764.385498</ele>
        <time>2016-05-08T10:23:00Z</time>
      </trkpt>
      <trkpt lat="44.42682" lon="5.98301">
        <ele>763.4240723</ele>
        <time>2016-05-08T10:23:03Z</time>
      </trkpt>
      <trkpt lat="44.42676" lon="5.98321">
        <ele>761.020752</ele>
        <time>2016-05-08T10:23:10Z</time>
      </trkpt>
      <trkpt lat="44.42682" lon="5.98324">
        <ele>760.5400391</ele>
        <time>2016-05-08T10:23:11Z</time>
      </trkpt>
      <trkpt lat="44.42707" lon="5.98338">
        <ele>758.6174316</ele>
        <time>2016-05-08T10:23:15Z</time>
      </trkpt>
      <trkpt lat="44.4274" lon="5.98371">
        <ele>757.1755371</ele>
        <time>2016-05-08T10:23:20Z</time>
      </trkpt>
      <trkpt lat="44.42769" lon="5.98397">
        <ele>754.291748</ele>
        <time>2016-05-08T10:23:24Z</time>
      </trkpt>
      <trkpt lat="44.42782" lon="5.98411">
        <ele>753.3303223</ele>
        <time>2016-05-08T10:23:26Z</time>
      </trkpt>
      <trkpt lat="44.42789" lon="5.98418">
        <ele>752.8496094</ele>
        <time>2016-05-08T10:23:27Z</time>
      </trkpt>
      <trkpt lat="44.42813" lon="5.98436">
        <ele>751.4077148</ele>
        <time>2016-05-08T10:23:30Z</time>
      </trkpt>
      <trkpt lat="44.42835" lon="5.98449">
        <ele>749.0043945</ele>
        <time>2016-05-08T10:23:33Z</time>
      </trkpt>
      <trkpt lat="44.42897" lon="5.98486">
        <ele>745.6396484</ele>
        <time>2016-05-08T10:23:41Z</time>
      </trkpt>
      <trkpt lat="44.4293" lon="5.98495">
        <ele>742.2751465</ele>
        <time>2016-05-08T10:23:45Z</time>
      </trkpt>
      <trkpt lat="44.42944" lon="5.985">
        <ele>740.8330078</ele>
        <time>2016-05-08T10:23:47Z</time>
      </trkpt>
      <trkpt lat="44.42967" lon="5.98521">
        <ele>739.3911133</ele>
        <time>2016-05-08T10:23:51Z</time>
      </trkpt>
      <trkpt lat="44.42989" lon="5.98554">
        <ele>737.4685059</ele>
        <time>2016-05-08T10:23:56Z</time>
      </trkpt>
      <trkpt lat="44.42992" lon="5.9856">
        <ele>736.987793</ele>
        <time>2016-05-08T10:23:57Z</time>
      </trkpt>
      <trkpt lat="44.42979" lon="5.98613">
        <ele>734.5847168</ele>
        <time>2016-05-08T10:24:04Z</time>
      </trkpt>
      <trkpt lat="44.42964" lon="5.98621">
        <ele>733.623291</ele>
        <time>2016-05-08T10:24:06Z</time>
      </trkpt>
      <trkpt lat="44.42912" lon="5.98634">
        <ele>732.1813965</ele>
        <time>2016-05-08T10:24:12Z</time>
      </trkpt>
      <trkpt lat="44.4287" lon="5.98651">
        <ele>728.8166504</ele>
        <time>2016-05-08T10:24:17Z</time>
      </trkpt>
      <trkpt lat="44.42855" lon="5.98656">
        <ele>727.8552246</ele>
        <time>2016-05-08T10:24:19Z</time>
      </trkpt>
      <trkpt lat="44.42809" lon="5.98716">
        <ele>724.0100098</ele>
        <time>2016-05-08T10:24:27Z</time>
      </trkpt>
      <trkpt lat="44.42806" lon="5.98729">
        <ele>724.0100098</ele>
        <time>2016-05-08T10:24:28Z</time>
      </trkpt>
      <trkpt lat="44.42792" lon="5.98788">
        <ele>720.6455078</ele>
        <time>2016-05-08T10:24:33Z</time>
      </trkpt>
      <trkpt lat="44.4279" lon="5.98799">
        <ele>717.7614746</ele>
        <time>2016-05-08T10:24:34Z</time>
      </trkpt>
      <trkpt lat="44.42791" lon="5.98844">
        <ele>716.3195801</ele>
        <time>2016-05-08T10:24:38Z</time>
      </trkpt>
      <trkpt lat="44.42793" lon="5.98924">
        <ele>712.4741211</ele>
        <time>2016-05-08T10:24:44Z</time>
      </trkpt>
      <trkpt lat="44.42789" lon="5.98964">
        <ele>711.5129395</ele>
        <time>2016-05-08T10:24:47Z</time>
      </trkpt>
      <trkpt lat="44.42787" lon="5.98977">
        <ele>709.590332</ele>
        <time>2016-05-08T10:24:48Z</time>
      </trkpt>
      <trkpt lat="44.42786" lon="5.99011">
        <ele>707.1870117</ele>
        <time>2016-05-08T10:24:51Z</time>
      </trkpt>
      <trkpt lat="44.42787" lon="5.9902">
        <ele>705.2644043</ele>
        <time>2016-05-08T10:24:52Z</time>
      </trkpt>
      <trkpt lat="44.42788" lon="5.99035">
        <ele>703.8225098</ele>
        <time>2016-05-08T10:24:54Z</time>
      </trkpt>
      <trkpt lat="44.42791" lon="5.99046">
        <ele>702.3803711</ele>
        <time>2016-05-08T10:24:56Z</time>
      </trkpt>
      <trkpt lat="44.42794" lon="5.99057">
        <ele>701.8999023</ele>
        <time>2016-05-08T10:24:58Z</time>
      </trkpt>
      <trkpt lat="44.42792" lon="5.99072">
        <ele>699.9770508</ele>
        <time>2016-05-08T10:25:01Z</time>
      </trkpt>
      <trkpt lat="44.42767" lon="5.99057">
        <ele>699.4963379</ele>
        <time>2016-05-08T10:25:06Z</time>
      </trkpt>
      <trkpt lat="44.42761" lon="5.99039">
        <ele>698.0544434</ele>
        <time>2016-05-08T10:25:08Z</time>
      </trkpt>
      <trkpt lat="44.42752" lon="5.98995">
        <ele>696.1318359</ele>
        <time>2016-05-08T10:25:12Z</time>
      </trkpt>
      <trkpt lat="44.42743" lon="5.98968">
        <ele>692.767334</ele>
        <time>2016-05-08T10:25:15Z</time>
      </trkpt>
      <trkpt lat="44.42729" lon="5.98957">
        <ele>691.3251953</ele>
        <time>2016-05-08T10:25:17Z</time>
      </trkpt>
      <trkpt lat="44.42722" lon="5.98954">
        <ele>690.8444824</ele>
        <time>2016-05-08T10:25:18Z</time>
      </trkpt>
      <trkpt lat="44.42651" lon="5.98936">
        <ele>686.9992676</ele>
        <time>2016-05-08T10:25:27Z</time>
      </trkpt>
      <trkpt lat="44.42625" lon="5.98943">
        <ele>684.5961914</ele>
        <time>2016-05-08T10:25:31Z</time>
      </trkpt>
      <trkpt lat="44.42612" lon="5.98954">
        <ele>684.1154785</ele>
        <time>2016-05-08T10:25:33Z</time>
      </trkpt>
      <trkpt lat="44.42603" lon="5.98965">
        <ele>682.6733398</ele>
        <time>2016-05-08T10:25:35Z</time>
      </trkpt>
      <trkpt lat="44.42565" lon="5.98978">
        <ele>680.2700195</ele>
        <time>2016-05-08T10:25:41Z</time>
      </trkpt>
      <trkpt lat="44.42515" lon="5.98973">
        <ele>678.3474121</ele>
        <time>2016-05-08T10:25:47Z</time>
      </trkpt>
      <trkpt lat="44.42483" lon="5.98982">
        <ele>674.9829102</ele>
        <time>2016-05-08T10:25:51Z</time>
      </trkpt>
      <trkpt lat="44.4247" lon="5.98988">
        <ele>674.0214844</ele>
        <time>2016-05-08T10:25:53Z</time>
      </trkpt>
      <trkpt lat="44.42441" lon="5.98988">
        <ele>673.0603027</ele>
        <time>2016-05-08T10:25:57Z</time>
      </trkpt>
      <trkpt lat="44.42411" lon="5.98975">
        <ele>672.098877</ele>
        <time>2016-05-08T10:26:01Z</time>
      </trkpt>
      <trkpt lat="44.42379" lon="5.98938">
        <ele>669.2150879</ele>
        <time>2016-05-08T10:26:06Z</time>
      </trkpt>
      <trkpt lat="44.4235" lon="5.98902">
        <ele>666.8115234</ele>
        <time>2016-05-08T10:26:10Z</time>
      </trkpt>
      <trkpt lat="44.42299" lon="5.98855">
        <ele>663.4470215</ele>
        <time>2016-05-08T10:26:16Z</time>
      </trkpt>
      <trkpt lat="44.42269" lon="5.98842">
        <ele>662.005127</ele>
        <time>2016-05-08T10:26:19Z</time>
      </trkpt>
      <trkpt lat="44.42238" lon="5.98833">
        <ele>660.5629883</ele>
        <time>2016-05-08T10:26:22Z</time>
      </trkpt>
      <trkpt lat="44.4222" lon="5.98829">
        <ele>659.1210938</ele>
        <time>2016-05-08T10:26:24Z</time>
      </trkpt>
      <trkpt lat="44.42212" lon="5.98827">
        <ele>656.2370605</ele>
        <time>2016-05-08T10:26:25Z</time>
      </trkpt>
      <trkpt lat="44.42186" lon="5.98815">
        <ele>654.795166</ele>
        <time>2016-05-08T10:26:29Z</time>
      </trkpt>
      <trkpt lat="44.42181" lon="5.98812">
        <ele>654.3146973</ele>
        <time>2016-05-08T10:26:30Z</time>
      </trkpt>
      <trkpt lat="44.42173" lon="5.98804">
        <ele>653.3532715</ele>
        <time>2016-05-08T10:26:32Z</time>
      </trkpt>
      <trkpt lat="44.42162" lon="5.98818">
        <ele>651.9111328</ele>
        <time>2016-05-08T10:26:38Z</time>
      </trkpt>
      <trkpt lat="44.42172" lon="5.98825">
        <ele>650.949707</ele>
        <time>2016-05-08T10:26:40Z</time>
      </trkpt>
      <trkpt lat="44.42246" lon="5.98876">
        <ele>647.1044922</ele>
        <time>2016-05-08T10:26:51Z</time>
      </trkpt>
      <trkpt lat="44.42262" lon="5.98889">
        <ele>646.1433105</ele>
        <time>2016-05-08T10:26:53Z</time>
      </trkpt>
      <trkpt lat="44.4229" lon="5.98926">
        <ele>644.2207031</ele>
        <time>2016-05-08T10:26:57Z</time>
      </trkpt>
      <trkpt lat="44.42302" lon="5.98948">
        <ele>643.2592773</ele>
        <time>2016-05-08T10:26:59Z</time>
      </trkpt>
      <trkpt lat="44.42314" lon="5.98972">
        <ele>642.2980957</ele>
        <time>2016-05-08T10:27:01Z</time>
      </trkpt>
      <trkpt lat="44.42342" lon="5.99018">
        <ele>638.9335938</ele>
        <time>2016-05-08T10:27:05Z</time>
      </trkpt>
      <trkpt lat="44.4235" lon="5.99029">
        <ele>638.9335938</ele>
        <time>2016-05-08T10:27:06Z</time>
      </trkpt>
      <trkpt lat="44.4239" lon="5.99087">
        <ele>635.0881348</ele>
        <time>2016-05-08T10:27:11Z</time>
      </trkpt>
      <trkpt lat="44.42398" lon="5.99098">
        <ele>635.0881348</ele>
        <time>2016-05-08T10:27:12Z</time>
      </trkpt>
      <trkpt lat="44.42419" lon="5.99133">
        <ele>632.6848145</ele>
        <time>2016-05-08T10:27:15Z</time>
      </trkpt>
      <trkpt lat="44.42431" lon="5.99157">
        <ele>631.2429199</ele>
        <time>2016-05-08T10:27:17Z</time>
      </trkpt>
      <trkpt lat="44.42441" lon="5.99181">
        <ele>627.8781738</ele>
        <time>2016-05-08T10:27:19Z</time>
      </trkpt>
      <trkpt lat="44.42445" lon="5.99193">
        <ele>627.8781738</ele>
        <time>2016-05-08T10:27:20Z</time>
      </trkpt>
      <trkpt lat="44.42452" lon="5.99214">
        <ele>626.4362793</ele>
        <time>2016-05-08T10:27:22Z</time>
      </trkpt>
      <trkpt lat="44.4246" lon="5.99255">
        <ele>624.9943848</ele>
        <time>2016-05-08T10:27:26Z</time>
      </trkpt>
      <trkpt lat="44.42446" lon="5.99313">
        <ele>622.1103516</ele>
        <time>2016-05-08T10:27:33Z</time>
      </trkpt>
      <trkpt lat="44.42431" lon="5.99319">
        <ele>620.668457</ele>
        <time>2016-05-08T10:27:35Z</time>
      </trkpt>
      <trkpt lat="44.42385" lon="5.99325">
        <ele>618.2648926</ele>
        <time>2016-05-08T10:27:40Z</time>
      </trkpt>
      <trkpt lat="44.42354" lon="5.99328">
        <ele>616.822998</ele>
        <time>2016-05-08T10:27:43Z</time>
      </trkpt>
      <trkpt lat="44.42333" lon="5.99331">
        <ele>615.3811035</ele>
        <time>2016-05-08T10:27:45Z</time>
      </trkpt>
      <trkpt lat="44.42277" lon="5.99338">
        <ele>612.9777832</ele>
        <time>2016-05-08T10:27:50Z</time>
      </trkpt>
      <trkpt lat="44.42243" lon="5.99342">
        <ele>609.6132813</ele>
        <time>2016-05-08T10:27:53Z</time>
      </trkpt>
      <trkpt lat="44.42232" lon="5.99343">
        <ele>609.6132813</ele>
        <time>2016-05-08T10:27:54Z</time>
      </trkpt>
      <trkpt lat="44.42148" lon="5.99353">
        <ele>605.7680664</ele>
        <time>2016-05-08T10:28:02Z</time>
      </trkpt>
      <trkpt lat="44.42128" lon="5.99355">
        <ele>603.8452148</ele>
        <time>2016-05-08T10:28:04Z</time>
      </trkpt>
      <trkpt lat="44.42092" lon="5.99361">
        <ele>601.4418945</ele>
        <time>2016-05-08T10:28:08Z</time>
      </trkpt>
      <trkpt lat="44.42084" lon="5.99362">
        <ele>600</ele>
        <time>2016-05-08T10:28:09Z</time>
      </trkpt>
      <trkpt lat="44.42072" lon="5.99366">
        <ele>598.5578613</ele>
        <time>2016-05-08T10:28:11Z</time>
      </trkpt>
      <trkpt lat="44.4205" lon="5.99402">
        <ele>594.2321777</ele>
        <time>2016-05-08T10:28:17Z</time>
      </trkpt>
      <trkpt lat="44.42049" lon="5.99408">
        <ele>594.2321777</ele>
        <time>2016-05-08T10:28:18Z</time>
      </trkpt>
      <trkpt lat="44.42048" lon="5.99418">
        <ele>593.7514648</ele>
        <time>2016-05-08T10:28:20Z</time>
      </trkpt>
      <trkpt lat="44.42055" lon="5.99448">
        <ele>591.8288574</ele>
        <time>2016-05-08T10:28:25Z</time>
      </trkpt>
      <trkpt lat="44.42112" lon="5.99595">
        <ele>591.8288574</ele>
        <time>2016-05-08T10:28:49Z</time>
      </trkpt>
      <trkpt lat="44.42157" lon="5.99728">
        <ele>592.7902832</ele>
        <time>2016-05-08T10:29:11Z</time>
      </trkpt>
      <trkpt lat="44.42196" lon="5.99843">
        <ele>592.3095703</ele>
        <time>2016-05-08T10:29:30Z</time>
      </trkpt>
      <trkpt lat="44.4224" lon="5.99981">
        <ele>592.3095703</ele>
        <time>2016-05-08T10:29:50Z</time>
      </trkpt>
      <trkpt lat="44.42245" lon="5.99999">
        <ele>592.3095703</ele>
        <time>2016-05-08T10:29:53Z</time>
      </trkpt>
      <trkpt lat="44.42247" lon="6.00024">
        <ele>591.8288574</ele>
        <time>2016-05-08T10:29:57Z</time>
      </trkpt>
      <trkpt lat="44.42254" lon="6.00048">
        <ele>591.8288574</ele>
        <time>2016-05-08T10:30:01Z</time>
      </trkpt>
      <trkpt lat="44.42268" lon="6.00073">
        <ele>591.8288574</ele>
        <time>2016-05-08T10:30:06Z</time>
      </trkpt>
      <trkpt lat="44.42306" lon="6.00181">
        <ele>592.3095703</ele>
        <time>2016-05-08T10:30:25Z</time>
      </trkpt>
      <trkpt lat="44.42332" lon="6.00264">
        <ele>593.7514648</ele>
        <time>2016-05-08T10:30:44Z</time>
      </trkpt>
      <trkpt lat="44.42363" lon="6.0036">
        <ele>595.1933594</ele>
        <time>2016-05-08T10:31:06Z</time>
      </trkpt>
      <trkpt lat="44.42393" lon="6.00456">
        <ele>596.635498</ele>
        <time>2016-05-08T10:31:28Z</time>
      </trkpt>
      <trkpt lat="44.42422" lon="6.0054">
        <ele>597.5966797</ele>
        <time>2016-05-08T10:31:49Z</time>
      </trkpt>
      <trkpt lat="44.42445" lon="6.00616">
        <ele>596.635498</ele>
        <time>2016-05-08T10:32:03Z</time>
      </trkpt>
      <trkpt lat="44.42449" lon="6.00651">
        <ele>595.6740723</ele>
        <time>2016-05-08T10:32:09Z</time>
      </trkpt>
      <trkpt lat="44.42458" lon="6.00682">
        <ele>595.6740723</ele>
        <time>2016-05-08T10:32:14Z</time>
      </trkpt>
      <trkpt lat="44.42478" lon="6.00719">
        <ele>596.1547852</ele>
        <time>2016-05-08T10:32:23Z</time>
      </trkpt>
      <trkpt lat="44.42478" lon="6.00744">
        <ele>595.6740723</ele>
        <time>2016-05-08T10:32:27Z</time>
      </trkpt>
      <trkpt lat="44.42476" lon="6.00775">
        <ele>594.7126465</ele>
        <time>2016-05-08T10:32:31Z</time>
      </trkpt>
      <trkpt lat="44.42493" lon="6.00817">
        <ele>593.270752</ele>
        <time>2016-05-08T10:32:36Z</time>
      </trkpt>
      <trkpt lat="44.42517" lon="6.00848">
        <ele>591.8288574</ele>
        <time>2016-05-08T10:32:40Z</time>
      </trkpt>
      <trkpt lat="44.42537" lon="6.00873">
        <ele>589.4255371</ele>
        <time>2016-05-08T10:32:44Z</time>
      </trkpt>
      <trkpt lat="44.42596" lon="6.00954">
        <ele>586.5415039</ele>
        <time>2016-05-08T10:32:56Z</time>
      </trkpt>
      <trkpt lat="44.426" lon="6.0096">
        <ele>586.5415039</ele>
        <time>2016-05-08T10:32:57Z</time>
      </trkpt>
      <trkpt lat="44.42647" lon="6.01014">
        <ele>586.060791</ele>
        <time>2016-05-08T10:33:08Z</time>
      </trkpt>
      <trkpt lat="44.42641" lon="6.01038">
        <ele>586.060791</ele>
        <time>2016-05-08T10:33:13Z</time>
      </trkpt>
      <trkpt lat="44.42588" lon="6.01118">
        <ele>584.1381836</ele>
        <time>2016-05-08T10:33:27Z</time>
      </trkpt>
      <trkpt lat="44.42563" lon="6.01152">
        <ele>586.060791</ele>
        <time>2016-05-08T10:33:39Z</time>
      </trkpt>
      <trkpt lat="44.42521" lon="6.01215">
        <ele>587.0219727</ele>
        <time>2016-05-08T10:34:03Z</time>
      </trkpt>
      <trkpt lat="44.42471" lon="6.01291">
        <ele>585.0996094</ele>
        <time>2016-05-08T10:34:15Z</time>
      </trkpt>
      <trkpt lat="44.42399" lon="6.01402">
        <ele>582.6962891</ele>
        <time>2016-05-08T10:34:30Z</time>
      </trkpt>
      <trkpt lat="44.42331" lon="6.01505">
        <ele>582.2155762</ele>
        <time>2016-05-08T10:34:50Z</time>
      </trkpt>
      <trkpt lat="44.4228" lon="6.01583">
        <ele>581.7348633</ele>
        <time>2016-05-08T10:35:07Z</time>
      </trkpt>
      <trkpt lat="44.42236" lon="6.01639">
        <ele>583.1767578</ele>
        <time>2016-05-08T10:35:25Z</time>
      </trkpt>
      <trkpt lat="44.42225" lon="6.01678">
        <ele>582.2155762</ele>
        <time>2016-05-08T10:35:35Z</time>
      </trkpt>
      <trkpt lat="44.42232" lon="6.01705">
        <ele>582.2155762</ele>
        <time>2016-05-08T10:35:40Z</time>
      </trkpt>
      <trkpt lat="44.42234" lon="6.01798">
        <ele>584.6188965</ele>
        <time>2016-05-08T10:36:00Z</time>
      </trkpt>
      <trkpt lat="44.42211" lon="6.01847">
        <ele>587.5026855</ele>
        <time>2016-05-08T10:36:18Z</time>
      </trkpt>
      <trkpt lat="44.42167" lon="6.01904">
        <ele>588.4643555</ele>
        <time>2016-05-08T10:36:41Z</time>
      </trkpt>
      <trkpt lat="44.42119" lon="6.01965">
        <ele>588.4643555</ele>
        <time>2016-05-08T10:37:02Z</time>
      </trkpt>
      <trkpt lat="44.4205" lon="6.02051">
        <ele>588.4643555</ele>
        <time>2016-05-08T10:37:31Z</time>
      </trkpt>
      <trkpt lat="44.4198" lon="6.02131">
        <ele>587.9833984</ele>
        <time>2016-05-08T10:37:59Z</time>
      </trkpt>
      <trkpt lat="44.41977" lon="6.02129">
        <ele>587.5026855</ele>
        <time>2016-05-08T10:38:09Z</time>
      </trkpt>
      <trkpt lat="44.41977" lon="6.02129">
        <ele>587.5026855</ele>
        <time>2016-05-08T10:39:24Z</time>
      </trkpt>
      <trkpt lat="44.41977" lon="6.02128">
        <ele>587.0219727</ele>
        <time>2016-05-08T10:39:48Z</time>
      </trkpt>
      <trkpt lat="44.41977" lon="6.02129">
        <ele>587.0219727</ele>
        <time>2016-05-08T10:39:57Z</time>
      </trkpt>
      <trkpt lat="44.41972" lon="6.02139">
        <ele>587.0219727</ele>
        <time>2016-05-08T10:40:03Z</time>
      </trkpt>
      <trkpt lat="44.41991" lon="6.02204">
        <ele>587.0219727</ele>
        <time>2016-05-08T10:40:18Z</time>
      </trkpt>
      <trkpt lat="44.42013" lon="6.02262">
        <ele>588.9450684</ele>
        <time>2016-05-08T10:40:34Z</time>
      </trkpt>
      <trkpt lat="44.42056" lon="6.02314">
        <ele>589.90625</ele>
        <time>2016-05-08T10:40:51Z</time>
      </trkpt>
      <trkpt lat="44.42099" lon="6.0235">
        <ele>590.3869629</ele>
        <time>2016-05-08T10:41:06Z</time>
      </trkpt>
      <trkpt lat="44.42141" lon="6.02418">
        <ele>591.3481445</ele>
        <time>2016-05-08T10:41:25Z</time>
      </trkpt>
      <trkpt lat="44.42187" lon="6.02514">
        <ele>591.8288574</ele>
        <time>2016-05-08T10:41:48Z</time>
      </trkpt>
      <trkpt lat="44.42234" lon="6.02603">
        <ele>592.3095703</ele>
        <time>2016-05-08T10:42:10Z</time>
      </trkpt>
      <trkpt lat="44.42274" lon="6.02676">
        <ele>593.7514648</ele>
        <time>2016-05-08T10:42:30Z</time>
      </trkpt>
      <trkpt lat="44.42302" lon="6.02755">
        <ele>594.2321777</ele>
        <time>2016-05-08T10:42:50Z</time>
      </trkpt>
      <trkpt lat="44.42305" lon="6.02794">
        <ele>596.1547852</ele>
        <time>2016-05-08T10:43:02Z</time>
      </trkpt>
      <trkpt lat="44.42299" lon="6.02798">
        <ele>596.635498</ele>
        <time>2016-05-08T10:43:16Z</time>
      </trkpt>
      <trkpt lat="44.42298" lon="6.02792">
        <ele>597.1159668</ele>
        <time>2016-05-08T10:43:36Z</time>
      </trkpt>
      <trkpt lat="44.42299" lon="6.02792">
        <ele>597.1159668</ele>
        <time>2016-05-08T10:43:55Z</time>
      </trkpt>
      <trkpt lat="44.42299" lon="6.02792">
        <ele>596.635498</ele>
        <time>2016-05-08T10:43:58Z</time>
      </trkpt>
      <trkpt lat="44.42305" lon="6.02795">
        <ele>596.1547852</ele>
        <time>2016-05-08T10:44:01Z</time>
      </trkpt>
      <trkpt lat="44.4233" lon="6.02847">
        <ele>596.635498</ele>
        <time>2016-05-08T10:44:16Z</time>
      </trkpt>
      <trkpt lat="44.42354" lon="6.02915">
        <ele>598.0773926</ele>
        <time>2016-05-08T10:44:34Z</time>
      </trkpt>
      <trkpt lat="44.42385" lon="6.02994">
        <ele>598.5578613</ele>
        <time>2016-05-08T10:44:56Z</time>
      </trkpt>
      <trkpt lat="44.4242" lon="6.03074">
        <ele>600</ele>
        <time>2016-05-08T10:45:18Z</time>
      </trkpt>
      <trkpt lat="44.42454" lon="6.03155">
        <ele>600.9611816</ele>
        <time>2016-05-08T10:45:40Z</time>
      </trkpt>
      <trkpt lat="44.42476" lon="6.03239">
        <ele>602.4030762</ele>
        <time>2016-05-08T10:46:03Z</time>
      </trkpt>
      <trkpt lat="44.42497" lon="6.03341">
        <ele>605.2873535</ele>
        <time>2016-05-08T10:46:31Z</time>
      </trkpt>
      <trkpt lat="44.42514" lon="6.03415">
        <ele>606.2485352</ele>
        <time>2016-05-08T10:46:50Z</time>
      </trkpt>
      <trkpt lat="44.42558" lon="6.03433">
        <ele>607.2099609</ele>
        <time>2016-05-08T10:47:04Z</time>
      </trkpt>
      <trkpt lat="44.42581" lon="6.03434">
        <ele>607.6906738</ele>
        <time>2016-05-08T10:47:11Z</time>
      </trkpt>
      <trkpt lat="44.42609" lon="6.03418">
        <ele>608.6518555</ele>
        <time>2016-05-08T10:47:17Z</time>
      </trkpt>
      <trkpt lat="44.4262" lon="6.03413">
        <ele>606.729248</ele>
        <time>2016-05-08T10:47:19Z</time>
      </trkpt>
      <trkpt lat="44.42632" lon="6.03411">
        <ele>605.7680664</ele>
        <time>2016-05-08T10:47:21Z</time>
      </trkpt>
      <trkpt lat="44.4273" lon="6.03437">
        <ele>602.8837891</ele>
        <time>2016-05-08T10:47:35Z</time>
      </trkpt>
      <trkpt lat="44.4282" lon="6.035">
        <ele>603.364502</ele>
        <time>2016-05-08T10:47:52Z</time>
      </trkpt>
      <trkpt lat="44.42888" lon="6.03547">
        <ele>604.8066406</ele>
        <time>2016-05-08T10:48:11Z</time>
      </trkpt>
      <trkpt lat="44.42923" lon="6.03559">
        <ele>604.3261719</ele>
        <time>2016-05-08T10:48:18Z</time>
      </trkpt>
      <trkpt lat="44.43016" lon="6.03544">
        <ele>602.8837891</ele>
        <time>2016-05-08T10:48:34Z</time>
      </trkpt>
      <trkpt lat="44.43083" lon="6.03587">
        <ele>602.8837891</ele>
        <time>2016-05-08T10:48:47Z</time>
      </trkpt>
      <trkpt lat="44.43126" lon="6.03622">
        <ele>604.8066406</ele>
        <time>2016-05-08T10:49:02Z</time>
      </trkpt>
      <trkpt lat="44.43172" lon="6.03649">
        <ele>606.2485352</ele>
        <time>2016-05-08T10:49:20Z</time>
      </trkpt>
      <trkpt lat="44.43236" lon="6.0367">
        <ele>608.6518555</ele>
        <time>2016-05-08T10:49:43Z</time>
      </trkpt>
      <trkpt lat="44.4329" lon="6.03722">
        <ele>609.6132813</ele>
        <time>2016-05-08T10:50:02Z</time>
      </trkpt>
      <trkpt lat="44.43338" lon="6.03778">
        <ele>611.5358887</ele>
        <time>2016-05-08T10:50:22Z</time>
      </trkpt>
      <trkpt lat="44.43385" lon="6.03872">
        <ele>612.0166016</ele>
        <time>2016-05-08T10:50:45Z</time>
      </trkpt>
      <trkpt lat="44.43405" lon="6.03938">
        <ele>614.4196777</ele>
        <time>2016-05-08T10:51:03Z</time>
      </trkpt>
      <trkpt lat="44.43437" lon="6.04014">
        <ele>614.9003906</ele>
        <time>2016-05-08T10:51:23Z</time>
      </trkpt>
      <trkpt lat="44.43483" lon="6.04079">
        <ele>613.4584961</ele>
        <time>2016-05-08T10:51:34Z</time>
      </trkpt>
      <trkpt lat="44.4353" lon="6.0412">
        <ele>612.0166016</ele>
        <time>2016-05-08T10:51:42Z</time>
      </trkpt>
      <trkpt lat="44.43573" lon="6.04211">
        <ele>610.5744629</ele>
        <time>2016-05-08T10:51:55Z</time>
      </trkpt>
      <trkpt lat="44.43575" lon="6.04218">
        <ele>610.5744629</ele>
        <time>2016-05-08T10:51:56Z</time>
      </trkpt>
      <trkpt lat="44.43615" lon="6.04291">
        <ele>612.0166016</ele>
        <time>2016-05-08T10:52:12Z</time>
      </trkpt>
      <trkpt lat="44.43671" lon="6.04396">
        <ele>612.9777832</ele>
        <time>2016-05-08T10:52:37Z</time>
      </trkpt>
      <trkpt lat="44.43689" lon="6.04417">
        <ele>612.4970703</ele>
        <time>2016-05-08T10:52:42Z</time>
      </trkpt>
      <trkpt lat="44.43724" lon="6.04427">
        <ele>613.4584961</ele>
        <time>2016-05-08T10:52:51Z</time>
      </trkpt>
      <trkpt lat="44.43748" lon="6.04418">
        <ele>613.9389648</ele>
        <time>2016-05-08T10:52:58Z</time>
      </trkpt>
      <trkpt lat="44.43763" lon="6.04416">
        <ele>613.4584961</ele>
        <time>2016-05-08T10:53:01Z</time>
      </trkpt>
      <trkpt lat="44.43846" lon="6.04451">
        <ele>611.5358887</ele>
        <time>2016-05-08T10:53:13Z</time>
      </trkpt>
      <trkpt lat="44.43859" lon="6.04457">
        <ele>610.09375</ele>
        <time>2016-05-08T10:53:15Z</time>
      </trkpt>
      <trkpt lat="44.43931" lon="6.04491">
        <ele>611.0551758</ele>
        <time>2016-05-08T10:53:28Z</time>
      </trkpt>
      <trkpt lat="44.43979" lon="6.04545">
        <ele>612.4970703</ele>
        <time>2016-05-08T10:53:46Z</time>
      </trkpt>
      <trkpt lat="44.44015" lon="6.0463">
        <ele>612.4970703</ele>
        <time>2016-05-08T10:54:05Z</time>
      </trkpt>
      <trkpt lat="44.44022" lon="6.04646">
        <ele>611.5358887</ele>
        <time>2016-05-08T10:54:07Z</time>
      </trkpt>
      <trkpt lat="44.44072" lon="6.04767">
        <ele>610.09375</ele>
        <time>2016-05-08T10:54:20Z</time>
      </trkpt>
      <trkpt lat="44.44081" lon="6.04787">
        <ele>610.5744629</ele>
        <time>2016-05-08T10:54:23Z</time>
      </trkpt>
      <trkpt lat="44.44115" lon="6.04822">
        <ele>612.0166016</ele>
        <time>2016-05-08T10:54:37Z</time>
      </trkpt>
      <trkpt lat="44.44152" lon="6.04852">
        <ele>613.9389648</ele>
        <time>2016-05-08T10:54:55Z</time>
      </trkpt>
      <trkpt lat="44.44176" lon="6.04901">
        <ele>614.4196777</ele>
        <time>2016-05-08T10:55:12Z</time>
      </trkpt>
      <trkpt lat="44.44208" lon="6.04929">
        <ele>616.3422852</ele>
        <time>2016-05-08T10:55:28Z</time>
      </trkpt>
      <trkpt lat="44.44249" lon="6.04954">
        <ele>618.2648926</ele>
        <time>2016-05-08T10:55:48Z</time>
      </trkpt>
      <trkpt lat="44.44288" lon="6.04986">
        <ele>622.1103516</ele>
        <time>2016-05-08T10:56:10Z</time>
      </trkpt>
      <trkpt lat="44.44308" lon="6.05024">
        <ele>624.9943848</ele>
        <time>2016-05-08T10:56:27Z</time>
      </trkpt>
      <trkpt lat="44.44322" lon="6.05064">
        <ele>627.8781738</ele>
        <time>2016-05-08T10:56:45Z</time>
      </trkpt>
      <trkpt lat="44.44335" lon="6.0509">
        <ele>629.8007813</ele>
        <time>2016-05-08T10:56:57Z</time>
      </trkpt>
      <trkpt lat="44.44359" lon="6.05136">
        <ele>631.2429199</ele>
        <time>2016-05-08T10:57:15Z</time>
      </trkpt>
      <trkpt lat="44.44388" lon="6.05192">
        <ele>631.2429199</ele>
        <time>2016-05-08T10:57:33Z</time>
      </trkpt>
      <trkpt lat="44.44414" lon="6.05241">
        <ele>629.8007813</ele>
        <time>2016-05-08T10:57:42Z</time>
      </trkpt>
      <trkpt lat="44.44443" lon="6.05285">
        <ele>629.3200684</ele>
        <time>2016-05-08T10:57:49Z</time>
      </trkpt>
      <trkpt lat="44.44489" lon="6.05336">
        <ele>629.8007813</ele>
        <time>2016-05-08T10:58:02Z</time>
      </trkpt>
      <trkpt lat="44.44526" lon="6.05393">
        <ele>629.8007813</ele>
        <time>2016-05-08T10:58:21Z</time>
      </trkpt>
      <trkpt lat="44.44568" lon="6.05453">
        <ele>630.2814941</ele>
        <time>2016-05-08T10:58:38Z</time>
      </trkpt>
      <trkpt lat="44.44629" lon="6.05509">
        <ele>627.8781738</ele>
        <time>2016-05-08T10:58:53Z</time>
      </trkpt>
      <trkpt lat="44.44654" lon="6.05541">
        <ele>628.3588867</ele>
        <time>2016-05-08T10:59:00Z</time>
      </trkpt>
      <trkpt lat="44.44691" lon="6.05581">
        <ele>629.3200684</ele>
        <time>2016-05-08T10:59:11Z</time>
      </trkpt>
      <trkpt lat="44.4474" lon="6.05619">
        <ele>629.3200684</ele>
        <time>2016-05-08T10:59:25Z</time>
      </trkpt>
      <trkpt lat="44.4476" lon="6.05633">
        <ele>629.8007813</ele>
        <time>2016-05-08T10:59:30Z</time>
      </trkpt>
      <trkpt lat="44.4479" lon="6.05708">
        <ele>630.2814941</ele>
        <time>2016-05-08T10:59:46Z</time>
      </trkpt>
      <trkpt lat="44.44798" lon="6.0583">
        <ele>630.762207</ele>
        <time>2016-05-08T11:00:06Z</time>
      </trkpt>
      <trkpt lat="44.44799" lon="6.05836">
        <ele>630.2814941</ele>
        <time>2016-05-08T11:00:07Z</time>
      </trkpt>
      <trkpt lat="44.44812" lon="6.05861">
        <ele>629.3200684</ele>
        <time>2016-05-08T11:00:12Z</time>
      </trkpt>
      <trkpt lat="44.44821" lon="6.0587">
        <ele>629.3200684</ele>
        <time>2016-05-08T11:00:14Z</time>
      </trkpt>
      <trkpt lat="44.44877" lon="6.05905">
        <ele>626.9169922</ele>
        <time>2016-05-08T11:00:23Z</time>
      </trkpt>
      <trkpt lat="44.44911" lon="6.05924">
        <ele>625.4748535</ele>
        <time>2016-05-08T11:00:27Z</time>
      </trkpt>
      <trkpt lat="44.44975" lon="6.05948">
        <ele>624.9943848</ele>
        <time>2016-05-08T11:00:36Z</time>
      </trkpt>
      <trkpt lat="44.45007" lon="6.05955">
        <ele>624.032959</ele>
        <time>2016-05-08T11:00:41Z</time>
      </trkpt>
      <trkpt lat="44.45077" lon="6.05944">
        <ele>622.5910645</ele>
        <time>2016-05-08T11:00:52Z</time>
      </trkpt>
      <trkpt lat="44.45149" lon="6.05926">
        <ele>620.668457</ele>
        <time>2016-05-08T11:01:01Z</time>
      </trkpt>
      <trkpt lat="44.45186" lon="6.05931">
        <ele>616.3422852</ele>
        <time>2016-05-08T11:01:05Z</time>
      </trkpt>
      <trkpt lat="44.45195" lon="6.05936">
        <ele>616.3422852</ele>
        <time>2016-05-08T11:01:06Z</time>
      </trkpt>
      <trkpt lat="44.45204" lon="6.05942">
        <ele>615.8618164</ele>
        <time>2016-05-08T11:01:07Z</time>
      </trkpt>
      <trkpt lat="44.4523" lon="6.05961">
        <ele>614.9003906</ele>
        <time>2016-05-08T11:01:10Z</time>
      </trkpt>
      <trkpt lat="44.45328" lon="6.06023">
        <ele>611.5358887</ele>
        <time>2016-05-08T11:01:21Z</time>
      </trkpt>
      <trkpt lat="44.45353" lon="6.06035">
        <ele>610.09375</ele>
        <time>2016-05-08T11:01:24Z</time>
      </trkpt>
      <trkpt lat="44.45443" lon="6.06082">
        <ele>610.09375</ele>
        <time>2016-05-08T11:01:38Z</time>
      </trkpt>
      <trkpt lat="44.45504" lon="6.06117">
        <ele>611.5358887</ele>
        <time>2016-05-08T11:01:53Z</time>
      </trkpt>
      <trkpt lat="44.45555" lon="6.06149">
        <ele>612.9777832</ele>
        <time>2016-05-08T11:02:10Z</time>
      </trkpt>
      <trkpt lat="44.45601" lon="6.06162">
        <ele>614.9003906</ele>
        <time>2016-05-08T11:02:27Z</time>
      </trkpt>
      <trkpt lat="44.45633" lon="6.06159">
        <ele>616.3422852</ele>
        <time>2016-05-08T11:02:39Z</time>
      </trkpt>
      <trkpt lat="44.45682" lon="6.06156">
        <ele>617.7841797</ele>
        <time>2016-05-08T11:02:55Z</time>
      </trkpt>
      <trkpt lat="44.45729" lon="6.06188">
        <ele>619.7070313</ele>
        <time>2016-05-08T11:03:12Z</time>
      </trkpt>
      <trkpt lat="44.4578" lon="6.06256">
        <ele>620.668457</ele>
        <time>2016-05-08T11:03:33Z</time>
      </trkpt>
      <trkpt lat="44.45834" lon="6.06315">
        <ele>620.668457</ele>
        <time>2016-05-08T11:03:51Z</time>
      </trkpt>
      <trkpt lat="44.45883" lon="6.06368">
        <ele>622.1103516</ele>
        <time>2016-05-08T11:04:11Z</time>
      </trkpt>
      <trkpt lat="44.45924" lon="6.06411">
        <ele>623.5524902</ele>
        <time>2016-05-08T11:04:30Z</time>
      </trkpt>
      <trkpt lat="44.45979" lon="6.06466">
        <ele>625.9555664</ele>
        <time>2016-05-08T11:04:55Z</time>
      </trkpt>
      <trkpt lat="44.46029" lon="6.06514">
        <ele>626.9169922</ele>
        <time>2016-05-08T11:05:18Z</time>
      </trkpt>
      <trkpt lat="44.46031" lon="6.06517">
        <ele>626.4362793</ele>
        <time>2016-05-08T11:05:19Z</time>
      </trkpt>
      <trkpt lat="44.46043" lon="6.06508">
        <ele>626.4362793</ele>
        <time>2016-05-08T11:05:23Z</time>
      </trkpt>
      <trkpt lat="44.46071" lon="6.06467">
        <ele>624.9943848</ele>
        <time>2016-05-08T11:05:30Z</time>
      </trkpt>
      <trkpt lat="44.46083" lon="6.06452">
        <ele>623.5524902</ele>
        <time>2016-05-08T11:05:32Z</time>
      </trkpt>
      <trkpt lat="44.4612" lon="6.0641">
        <ele>621.6296387</ele>
        <time>2016-05-08T11:05:37Z</time>
      </trkpt>
      <trkpt lat="44.46185" lon="6.06337">
        <ele>616.822998</ele>
        <time>2016-05-08T11:05:45Z</time>
      </trkpt>
      <trkpt lat="44.46192" lon="6.06329">
        <ele>616.822998</ele>
        <time>2016-05-08T11:05:46Z</time>
      </trkpt>
      <trkpt lat="44.46204" lon="6.06315">
        <ele>615.3811035</ele>
        <time>2016-05-08T11:05:48Z</time>
      </trkpt>
      <trkpt lat="44.46218" lon="6.06283">
        <ele>613.4584961</ele>
        <time>2016-05-08T11:05:52Z</time>
      </trkpt>
      <trkpt lat="44.46204" lon="6.06239">
        <ele>612.4970703</ele>
        <time>2016-05-08T11:05:57Z</time>
      </trkpt>
      <trkpt lat="44.4618" lon="6.06164">
        <ele>609.6132813</ele>
        <time>2016-05-08T11:06:04Z</time>
      </trkpt>
      <trkpt lat="44.4618" lon="6.06122">
        <ele>608.1713867</ele>
        <time>2016-05-08T11:06:07Z</time>
      </trkpt>
      <trkpt lat="44.4618" lon="6.06037">
        <ele>604.8066406</ele>
        <time>2016-05-08T11:06:13Z</time>
      </trkpt>
      <trkpt lat="44.46178" lon="6.05979">
        <ele>603.364502</ele>
        <time>2016-05-08T11:06:18Z</time>
      </trkpt>
      <trkpt lat="44.46206" lon="6.05844">
        <ele>599.5192871</ele>
        <time>2016-05-08T11:06:31Z</time>
      </trkpt>
      <trkpt lat="44.46211" lon="6.05814">
        <ele>600</ele>
        <time>2016-05-08T11:06:34Z</time>
      </trkpt>
      <trkpt lat="44.46219" lon="6.05788">
        <ele>599.0385742</ele>
        <time>2016-05-08T11:06:37Z</time>
      </trkpt>
      <trkpt lat="44.46257" lon="6.05742">
        <ele>599.5192871</ele>
        <time>2016-05-08T11:06:48Z</time>
      </trkpt>
      <trkpt lat="44.46292" lon="6.05731">
        <ele>600.4807129</ele>
        <time>2016-05-08T11:07:02Z</time>
      </trkpt>
      <trkpt lat="44.4632" lon="6.05732">
        <ele>602.8837891</ele>
        <time>2016-05-08T11:07:15Z</time>
      </trkpt>
      <trkpt lat="44.46324" lon="6.05724">
        <ele>602.8837891</ele>
        <time>2016-05-08T11:07:19Z</time>
      </trkpt>
      <trkpt lat="44.46315" lon="6.05714">
        <ele>604.3261719</ele>
        <time>2016-05-08T11:07:25Z</time>
      </trkpt>
      <trkpt lat="44.46295" lon="6.05705">
        <ele>604.8066406</ele>
        <time>2016-05-08T11:07:35Z</time>
      </trkpt>
      <trkpt lat="44.46274" lon="6.05671">
        <ele>606.729248</ele>
        <time>2016-05-08T11:07:49Z</time>
      </trkpt>
      <trkpt lat="44.4627" lon="6.05663">
        <ele>606.729248</ele>
        <time>2016-05-08T11:07:52Z</time>
      </trkpt>
      <trkpt lat="44.46268" lon="6.0565">
        <ele>607.2099609</ele>
        <time>2016-05-08T11:07:57Z</time>
      </trkpt>
      <trkpt lat="44.46264" lon="6.05634">
        <ele>607.2099609</ele>
        <time>2016-05-08T11:08:02Z</time>
      </trkpt>
      <trkpt lat="44.46267" lon="6.05626">
        <ele>607.6906738</ele>
        <time>2016-05-08T11:08:06Z</time>
      </trkpt>
      <trkpt lat="44.46269" lon="6.05623">
        <ele>608.1713867</ele>
        <time>2016-05-08T11:08:08Z</time>
      </trkpt>
      <trkpt lat="44.46276" lon="6.05607">
        <ele>609.1325684</ele>
        <time>2016-05-08T11:08:15Z</time>
      </trkpt>
      <trkpt lat="44.46267" lon="6.05588">
        <ele>609.6132813</ele>
        <time>2016-05-08T11:08:22Z</time>
      </trkpt>
      <trkpt lat="44.46223" lon="6.05542">
        <ele>610.09375</ele>
        <time>2016-05-08T11:08:43Z</time>
      </trkpt>
      <trkpt lat="44.46213" lon="6.05529">
        <ele>611.0551758</ele>
        <time>2016-05-08T11:08:49Z</time>
      </trkpt>
      <trkpt lat="44.4621" lon="6.05524">
        <ele>611.0551758</ele>
        <time>2016-05-08T11:08:51Z</time>
      </trkpt>
      <trkpt lat="44.46188" lon="6.0551">
        <ele>610.5744629</ele>
        <time>2016-05-08T11:08:59Z</time>
      </trkpt>
      <trkpt lat="44.46187" lon="6.05474">
        <ele>611.5358887</ele>
        <time>2016-05-08T11:09:10Z</time>
      </trkpt>
      <trkpt lat="44.46192" lon="6.05468">
        <ele>611.5358887</ele>
        <time>2016-05-08T11:09:13Z</time>
      </trkpt>
      <trkpt lat="44.46201" lon="6.05459">
        <ele>612.9777832</ele>
        <time>2016-05-08T11:09:18Z</time>
      </trkpt>
      <trkpt lat="44.46211" lon="6.05449">
        <ele>612.4970703</ele>
        <time>2016-05-08T11:09:24Z</time>
      </trkpt>
      <trkpt lat="44.46246" lon="6.05406">
        <ele>615.3811035</ele>
        <time>2016-05-08T11:09:47Z</time>
      </trkpt>
      <trkpt lat="44.46277" lon="6.05372">
        <ele>618.7456055</ele>
        <time>2016-05-08T11:10:06Z</time>
      </trkpt>
      <trkpt lat="44.46319" lon="6.0533">
        <ele>620.668457</ele>
        <time>2016-05-08T11:10:29Z</time>
      </trkpt>
      <trkpt lat="44.46354" lon="6.05295">
        <ele>622.1103516</ele>
        <time>2016-05-08T11:10:48Z</time>
      </trkpt>
      <trkpt lat="44.46378" lon="6.05269">
        <ele>623.0717773</ele>
        <time>2016-05-08T11:11:02Z</time>
      </trkpt>
      <trkpt lat="44.46387" lon="6.05277">
        <ele>624.032959</ele>
        <time>2016-05-08T11:11:08Z</time>
      </trkpt>
      <trkpt lat="44.46391" lon="6.05284">
        <ele>624.032959</ele>
        <time>2016-05-08T11:11:23Z</time>
      </trkpt>
      <trkpt lat="44.46391" lon="6.05284">
        <ele>624.5136719</ele>
        <time>2016-05-08T11:11:54Z</time>
      </trkpt>
      <trkpt lat="44.46391" lon="6.05284">
        <ele>624.032959</ele>
        <time>2016-05-08T11:12:15Z</time>
      </trkpt>
      <trkpt lat="44.46391" lon="6.05285">
        <ele>623.0717773</ele>
        <time>2016-05-08T11:12:43Z</time>
      </trkpt>
      <trkpt lat="44.46391" lon="6.05285">
        <ele>623.5524902</ele>
        <time>2016-05-08T11:12:56Z</time>
      </trkpt>
      <trkpt lat="44.46391" lon="6.05285">
        <ele>624.5136719</ele>
        <time>2016-05-08T11:13:01Z</time>
      </trkpt>
      <trkpt lat="44.46391" lon="6.05285">
        <ele>624.5136719</ele>
        <time>2016-05-08T11:13:41Z</time>
      </trkpt>
      <trkpt lat="44.46393" lon="6.05286">
        <ele>626.4362793</ele>
        <time>2016-05-08T11:16:59Z</time>
      </trkpt>
      <trkpt lat="44.46397" lon="6.05295">
        <ele>627.3977051</ele>
        <time>2016-05-08T11:17:37Z</time>
      </trkpt>
      <trkpt lat="44.4641" lon="6.05342">
        <ele>628.8395996</ele>
        <time>2016-05-08T11:17:52Z</time>
      </trkpt>
      <trkpt lat="44.46436" lon="6.0542">
        <ele>630.762207</ele>
        <time>2016-05-08T11:18:20Z</time>
      </trkpt>
      <trkpt lat="44.46465" lon="6.0545">
        <ele>632.2041016</ele>
        <time>2016-05-08T11:18:37Z</time>
      </trkpt>
      <trkpt lat="44.46508" lon="6.05435">
        <ele>634.6074219</ele>
        <time>2016-05-08T11:18:58Z</time>
      </trkpt>
      <trkpt lat="44.46551" lon="6.05412">
        <ele>637.4914551</ele>
        <time>2016-05-08T11:19:22Z</time>
      </trkpt>
      <trkpt lat="44.46594" lon="6.05395">
        <ele>640.3754883</ele>
        <time>2016-05-08T11:19:45Z</time>
      </trkpt>
      <trkpt lat="44.46632" lon="6.05406">
        <ele>642.7788086</ele>
        <time>2016-05-08T11:20:07Z</time>
      </trkpt>
      <trkpt lat="44.46669" lon="6.05391">
        <ele>646.1433105</ele>
        <time>2016-05-08T11:20:29Z</time>
      </trkpt>
      <trkpt lat="44.46698" lon="6.0536">
        <ele>648.5463867</ele>
        <time>2016-05-08T11:20:53Z</time>
      </trkpt>
      <trkpt lat="44.46724" lon="6.05328">
        <ele>650.949707</ele>
        <time>2016-05-08T11:21:14Z</time>
      </trkpt>
      <trkpt lat="44.46753" lon="6.05293">
        <ele>653.8339844</ele>
        <time>2016-05-08T11:21:39Z</time>
      </trkpt>
      <trkpt lat="44.46778" lon="6.05263">
        <ele>656.2370605</ele>
        <time>2016-05-08T11:22:00Z</time>
      </trkpt>
      <trkpt lat="44.46808" lon="6.05242">
        <ele>658.1599121</ele>
        <time>2016-05-08T11:22:22Z</time>
      </trkpt>
      <trkpt lat="44.4684" lon="6.05238">
        <ele>660.5629883</ele>
        <time>2016-05-08T11:22:42Z</time>
      </trkpt>
      <trkpt lat="44.46877" lon="6.05236">
        <ele>663.4470215</ele>
        <time>2016-05-08T11:23:06Z</time>
      </trkpt>
      <trkpt lat="44.46903" lon="6.0521">
        <ele>665.3696289</ele>
        <time>2016-05-08T11:23:27Z</time>
      </trkpt>
      <trkpt lat="44.46889" lon="6.05179">
        <ele>666.8115234</ele>
        <time>2016-05-08T11:23:43Z</time>
      </trkpt>
      <trkpt lat="44.46878" lon="6.05131">
        <ele>668.734375</ele>
        <time>2016-05-08T11:24:04Z</time>
      </trkpt>
      <trkpt lat="44.46861" lon="6.0509">
        <ele>670.1762695</ele>
        <time>2016-05-08T11:24:24Z</time>
      </trkpt>
      <trkpt lat="44.46841" lon="6.05052">
        <ele>673.0603027</ele>
        <time>2016-05-08T11:24:45Z</time>
      </trkpt>
      <trkpt lat="44.4682" lon="6.05015">
        <ele>675.9440918</ele>
        <time>2016-05-08T11:25:07Z</time>
      </trkpt>
      <trkpt lat="44.46797" lon="6.04975">
        <ele>678.828125</ele>
        <time>2016-05-08T11:25:31Z</time>
      </trkpt>
      <trkpt lat="44.46791" lon="6.04933">
        <ele>679.7893066</ele>
        <time>2016-05-08T11:25:50Z</time>
      </trkpt>
      <trkpt lat="44.46821" lon="6.04908">
        <ele>682.6733398</ele>
        <time>2016-05-08T11:26:11Z</time>
      </trkpt>
      <trkpt lat="44.46862" lon="6.04885">
        <ele>685.0769043</ele>
        <time>2016-05-08T11:26:37Z</time>
      </trkpt>
      <trkpt lat="44.46899" lon="6.04865">
        <ele>687.4799805</ele>
        <time>2016-05-08T11:27:01Z</time>
      </trkpt>
      <trkpt lat="44.46912" lon="6.0488">
        <ele>690.3640137</ele>
        <time>2016-05-08T11:27:16Z</time>
      </trkpt>
      <trkpt lat="44.46901" lon="6.04891">
        <ele>691.3251953</ele>
        <time>2016-05-08T11:27:26Z</time>
      </trkpt>
      <trkpt lat="44.46875" lon="6.04921">
        <ele>694.2092285</ele>
        <time>2016-05-08T11:27:49Z</time>
      </trkpt>
      <trkpt lat="44.46869" lon="6.04959">
        <ele>696.6125488</ele>
        <time>2016-05-08T11:28:08Z</time>
      </trkpt>
      <trkpt lat="44.46872" lon="6.04971">
        <ele>697.0930176</ele>
        <time>2016-05-08T11:28:14Z</time>
      </trkpt>
      <trkpt lat="44.46906" lon="6.04993">
        <ele>699.4963379</ele>
        <time>2016-05-08T11:28:37Z</time>
      </trkpt>
      <trkpt lat="44.46949" lon="6.05001">
        <ele>702.3803711</ele>
        <time>2016-05-08T11:29:04Z</time>
      </trkpt>
      <trkpt lat="44.46982" lon="6.04989">
        <ele>704.3032227</ele>
        <time>2016-05-08T11:29:25Z</time>
      </trkpt>
      <trkpt lat="44.47018" lon="6.04966">
        <ele>707.6677246</ele>
        <time>2016-05-08T11:29:50Z</time>
      </trkpt>
      <trkpt lat="44.47048" lon="6.04946">
        <ele>709.590332</ele>
        <time>2016-05-08T11:30:11Z</time>
      </trkpt>
      <trkpt lat="44.47093" lon="6.04922">
        <ele>711.5129395</ele>
        <time>2016-05-08T11:30:37Z</time>
      </trkpt>
      <trkpt lat="44.47142" lon="6.04914">
        <ele>713.4355469</ele>
        <time>2016-05-08T11:31:04Z</time>
      </trkpt>
      <trkpt lat="44.47186" lon="6.04912">
        <ele>715.3581543</ele>
        <time>2016-05-08T11:31:28Z</time>
      </trkpt>
      <trkpt lat="44.47236" lon="6.04912">
        <ele>717.2810059</ele>
        <time>2016-05-08T11:31:55Z</time>
      </trkpt>
      <trkpt lat="44.47278" lon="6.04913">
        <ele>718.7229004</ele>
        <time>2016-05-08T11:32:17Z</time>
      </trkpt>
      <trkpt lat="44.47329" lon="6.04919">
        <ele>720.6455078</ele>
        <time>2016-05-08T11:32:44Z</time>
      </trkpt>
      <trkpt lat="44.4737" lon="6.04926">
        <ele>722.5681152</ele>
        <time>2016-05-08T11:33:07Z</time>
      </trkpt>
      <trkpt lat="44.47405" lon="6.04934">
        <ele>724.4907227</ele>
        <time>2016-05-08T11:33:27Z</time>
      </trkpt>
      <trkpt lat="44.47433" lon="6.04953">
        <ele>726.894043</ele>
        <time>2016-05-08T11:33:46Z</time>
      </trkpt>
      <trkpt lat="44.4746" lon="6.04988">
        <ele>729.777832</ele>
        <time>2016-05-08T11:34:07Z</time>
      </trkpt>
      <trkpt lat="44.47474" lon="6.05025">
        <ele>731.7004395</ele>
        <time>2016-05-08T11:34:26Z</time>
      </trkpt>
      <trkpt lat="44.47504" lon="6.0502">
        <ele>732.1813965</ele>
        <time>2016-05-08T11:34:42Z</time>
      </trkpt>
      <trkpt lat="44.4751" lon="6.0501">
        <ele>732.6621094</ele>
        <time>2016-05-08T11:34:47Z</time>
      </trkpt>
      <trkpt lat="44.47542" lon="6.04976">
        <ele>734.5847168</ele>
        <time>2016-05-08T11:35:10Z</time>
      </trkpt>
      <trkpt lat="44.4757" lon="6.04947">
        <ele>737.4685059</ele>
        <time>2016-05-08T11:35:31Z</time>
      </trkpt>
      <trkpt lat="44.47599" lon="6.0493">
        <ele>739.3911133</ele>
        <time>2016-05-08T11:35:51Z</time>
      </trkpt>
      <trkpt lat="44.4763" lon="6.04938">
        <ele>741.7944336</ele>
        <time>2016-05-08T11:36:09Z</time>
      </trkpt>
      <trkpt lat="44.47667" lon="6.04961">
        <ele>744.1977539</ele>
        <time>2016-05-08T11:36:33Z</time>
      </trkpt>
      <trkpt lat="44.47703" lon="6.04988">
        <ele>747.081543</ele>
        <time>2016-05-08T11:36:57Z</time>
      </trkpt>
      <trkpt lat="44.47732" lon="6.05001">
        <ele>749.0043945</ele>
        <time>2016-05-08T11:37:16Z</time>
      </trkpt>
      <trkpt lat="44.4777" lon="6.05012">
        <ele>751.4077148</ele>
        <time>2016-05-08T11:37:38Z</time>
      </trkpt>
      <trkpt lat="44.47803" lon="6.05016">
        <ele>752.8496094</ele>
        <time>2016-05-08T11:37:57Z</time>
      </trkpt>
      <trkpt lat="44.47843" lon="6.05018">
        <ele>754.7722168</ele>
        <time>2016-05-08T11:38:19Z</time>
      </trkpt>
      <trkpt lat="44.47875" lon="6.05011">
        <ele>756.2141113</ele>
        <time>2016-05-08T11:38:38Z</time>
      </trkpt>
      <trkpt lat="44.47914" lon="6.04997">
        <ele>759.0981445</ele>
        <time>2016-05-08T11:39:02Z</time>
      </trkpt>
      <trkpt lat="44.47962" lon="6.04996">
        <ele>761.5014648</ele>
        <time>2016-05-08T11:39:30Z</time>
      </trkpt>
      <trkpt lat="44.48" lon="6.05012">
        <ele>764.385498</ele>
        <time>2016-05-08T11:39:54Z</time>
      </trkpt>
      <trkpt lat="44.48017" lon="6.05052">
        <ele>766.3081055</ele>
        <time>2016-05-08T11:40:14Z</time>
      </trkpt>
      <trkpt lat="44.48036" lon="6.05078">
        <ele>767.2695313</ele>
        <time>2016-05-08T11:40:29Z</time>
      </trkpt>
      <trkpt lat="44.48063" lon="6.05116">
        <ele>770.1533203</ele>
        <time>2016-05-08T11:40:52Z</time>
      </trkpt>
      <trkpt lat="44.48086" lon="6.05153">
        <ele>772.0759277</ele>
        <time>2016-05-08T11:41:12Z</time>
      </trkpt>
      <trkpt lat="44.48109" lon="6.05193">
        <ele>773.9985352</ele>
        <time>2016-05-08T11:41:34Z</time>
      </trkpt>
      <trkpt lat="44.48129" lon="6.05227">
        <ele>775.9211426</ele>
        <time>2016-05-08T11:41:53Z</time>
      </trkpt>
      <trkpt lat="44.48161" lon="6.05257">
        <ele>778.3244629</ele>
        <time>2016-05-08T11:42:16Z</time>
      </trkpt>
      <trkpt lat="44.48199" lon="6.05264">
        <ele>780.7280273</ele>
        <time>2016-05-08T11:42:39Z</time>
      </trkpt>
      <trkpt lat="44.48227" lon="6.05245">
        <ele>782.1699219</ele>
        <time>2016-05-08T11:42:56Z</time>
      </trkpt>
      <trkpt lat="44.4826" lon="6.05242">
        <ele>784.0925293</ele>
        <time>2016-05-08T11:43:14Z</time>
      </trkpt>
      <trkpt lat="44.48295" lon="6.05218">
        <ele>786.0151367</ele>
        <time>2016-05-08T11:43:36Z</time>
      </trkpt>
      <trkpt lat="44.48315" lon="6.05175">
        <ele>787.4570313</ele>
        <time>2016-05-08T11:43:54Z</time>
      </trkpt>
      <trkpt lat="44.4833" lon="6.05142">
        <ele>787.9377441</ele>
        <time>2016-05-08T11:44:06Z</time>
      </trkpt>
      <trkpt lat="44.4836" lon="6.05096">
        <ele>788.8991699</ele>
        <time>2016-05-08T11:44:23Z</time>
      </trkpt>
      <trkpt lat="44.48371" lon="6.05076">
        <ele>788.8991699</ele>
        <time>2016-05-08T11:44:30Z</time>
      </trkpt>
      <trkpt lat="44.48384" lon="6.05027">
        <ele>789.3796387</ele>
        <time>2016-05-08T11:44:44Z</time>
      </trkpt>
      <trkpt lat="44.48406" lon="6.04985">
        <ele>788.418457</ele>
        <time>2016-05-08T11:44:56Z</time>
      </trkpt>
      <trkpt lat="44.48458" lon="6.04952">
        <ele>789.3796387</ele>
        <time>2016-05-08T11:45:14Z</time>
      </trkpt>
      <trkpt lat="44.48511" lon="6.04968">
        <ele>789.8603516</ele>
        <time>2016-05-08T11:45:31Z</time>
      </trkpt>
      <trkpt lat="44.4857" lon="6.04979">
        <ele>790.8215332</ele>
        <time>2016-05-08T11:45:49Z</time>
      </trkpt>
      <trkpt lat="44.48627" lon="6.04973">
        <ele>791.3022461</ele>
        <time>2016-05-08T11:46:06Z</time>
      </trkpt>
      <trkpt lat="44.48682" lon="6.04981">
        <ele>794.666748</ele>
        <time>2016-05-08T11:46:28Z</time>
      </trkpt>
      <trkpt lat="44.48727" lon="6.04987">
        <ele>797.5510254</ele>
        <time>2016-05-08T11:46:50Z</time>
      </trkpt>
      <trkpt lat="44.48755" lon="6.04992">
        <ele>799.9543457</ele>
        <time>2016-05-08T11:47:06Z</time>
      </trkpt>
      <trkpt lat="44.48802" lon="6.05017">
        <ele>802.3574219</ele>
        <time>2016-05-08T11:47:31Z</time>
      </trkpt>
      <trkpt lat="44.48839" lon="6.05057">
        <ele>801.3962402</ele>
        <time>2016-05-08T11:47:47Z</time>
      </trkpt>
      <trkpt lat="44.48879" lon="6.05138">
        <ele>798.9929199</ele>
        <time>2016-05-08T11:47:58Z</time>
      </trkpt>
      <trkpt lat="44.48939" lon="6.05226">
        <ele>796.1091309</ele>
        <time>2016-05-08T11:48:09Z</time>
      </trkpt>
      <trkpt lat="44.49023" lon="6.05265">
        <ele>793.2248535</ele>
        <time>2016-05-08T11:48:20Z</time>
      </trkpt>
      <trkpt lat="44.49083" lon="6.05303">
        <ele>792.7443848</ele>
        <time>2016-05-08T11:48:31Z</time>
      </trkpt>
      <trkpt lat="44.49131" lon="6.05332">
        <ele>794.666748</ele>
        <time>2016-05-08T11:48:47Z</time>
      </trkpt>
      <trkpt lat="44.49187" lon="6.05373">
        <ele>796.5898438</ele>
        <time>2016-05-08T11:49:07Z</time>
      </trkpt>
      <trkpt lat="44.49263" lon="6.05443">
        <ele>797.0703125</ele>
        <time>2016-05-08T11:49:32Z</time>
      </trkpt>
      <trkpt lat="44.49332" lon="6.05496">
        <ele>798.9929199</ele>
        <time>2016-05-08T11:49:53Z</time>
      </trkpt>
      <trkpt lat="44.49405" lon="6.0553">
        <ele>800.4350586</ele>
        <time>2016-05-08T11:50:15Z</time>
      </trkpt>
      <trkpt lat="44.49482" lon="6.05543">
        <ele>800.9155273</ele>
        <time>2016-05-08T11:50:35Z</time>
      </trkpt>
      <trkpt lat="44.49548" lon="6.05555">
        <ele>802.8381348</ele>
        <time>2016-05-08T11:50:54Z</time>
      </trkpt>
      <trkpt lat="44.49604" lon="6.05578">
        <ele>804.2802734</ele>
        <time>2016-05-08T11:51:12Z</time>
      </trkpt>
      <trkpt lat="44.49662" lon="6.05611">
        <ele>807.1640625</ele>
        <time>2016-05-08T11:51:33Z</time>
      </trkpt>
      <trkpt lat="44.49724" lon="6.05641">
        <ele>807.6447754</ele>
        <time>2016-05-08T11:51:53Z</time>
      </trkpt>
      <trkpt lat="44.49747" lon="6.05648">
        <ele>806.6833496</ele>
        <time>2016-05-08T11:51:58Z</time>
      </trkpt>
      <trkpt lat="44.49818" lon="6.05647">
        <ele>802.3574219</ele>
        <time>2016-05-08T11:52:08Z</time>
      </trkpt>
      <trkpt lat="44.49827" lon="6.05646">
        <ele>802.3574219</ele>
        <time>2016-05-08T11:52:09Z</time>
      </trkpt>
      <trkpt lat="44.49881" lon="6.0564">
        <ele>799.4736328</ele>
        <time>2016-05-08T11:52:14Z</time>
      </trkpt>
      <trkpt lat="44.49904" lon="6.05637">
        <ele>798.0317383</ele>
        <time>2016-05-08T11:52:16Z</time>
      </trkpt>
      <trkpt lat="44.49927" lon="6.05634">
        <ele>796.5898438</ele>
        <time>2016-05-08T11:52:18Z</time>
      </trkpt>
      <trkpt lat="44.49951" lon="6.05631">
        <ele>794.666748</ele>
        <time>2016-05-08T11:52:20Z</time>
      </trkpt>
      <trkpt lat="44.49987" lon="6.05627">
        <ele>792.7443848</ele>
        <time>2016-05-08T11:52:23Z</time>
      </trkpt>
      <trkpt lat="44.50011" lon="6.05625">
        <ele>791.3022461</ele>
        <time>2016-05-08T11:52:25Z</time>
      </trkpt>
      <trkpt lat="44.50067" lon="6.05631">
        <ele>789.3796387</ele>
        <time>2016-05-08T11:52:30Z</time>
      </trkpt>
      <trkpt lat="44.50089" lon="6.05638">
        <ele>787.4570313</ele>
        <time>2016-05-08T11:52:32Z</time>
      </trkpt>
      <trkpt lat="44.50143" lon="6.05665">
        <ele>784.0925293</ele>
        <time>2016-05-08T11:52:37Z</time>
      </trkpt>
      <trkpt lat="44.50166" lon="6.05677">
        <ele>782.1699219</ele>
        <time>2016-05-08T11:52:39Z</time>
      </trkpt>
      <trkpt lat="44.50211" lon="6.057">
        <ele>779.2856445</ele>
        <time>2016-05-08T11:52:43Z</time>
      </trkpt>
      <trkpt lat="44.50222" lon="6.05706">
        <ele>779.2856445</ele>
        <time>2016-05-08T11:52:44Z</time>
      </trkpt>
      <trkpt lat="44.50242" lon="6.05717">
        <ele>777.84375</ele>
        <time>2016-05-08T11:52:46Z</time>
      </trkpt>
      <trkpt lat="44.50337" lon="6.05776">
        <ele>774.479248</ele>
        <time>2016-05-08T11:52:56Z</time>
      </trkpt>
      <trkpt lat="44.50378" lon="6.058">
        <ele>772.0759277</ele>
        <time>2016-05-08T11:53:01Z</time>
      </trkpt>
      <trkpt lat="44.50433" lon="6.058">
        <ele>769.6728516</ele>
        <time>2016-05-08T11:53:07Z</time>
      </trkpt>
      <trkpt lat="44.50481" lon="6.05755">
        <ele>766.3081055</ele>
        <time>2016-05-08T11:53:13Z</time>
      </trkpt>
      <trkpt lat="44.50487" lon="6.05744">
        <ele>766.3081055</ele>
        <time>2016-05-08T11:53:14Z</time>
      </trkpt>
      <trkpt lat="44.50518" lon="6.05685">
        <ele>763.4240723</ele>
        <time>2016-05-08T11:53:20Z</time>
      </trkpt>
      <trkpt lat="44.50563" lon="6.05646">
        <ele>761.5014648</ele>
        <time>2016-05-08T11:53:26Z</time>
      </trkpt>
      <trkpt lat="44.50583" lon="6.05639">
        <ele>760.5400391</ele>
        <time>2016-05-08T11:53:28Z</time>
      </trkpt>
      <trkpt lat="44.5064" lon="6.0562">
        <ele>757.1755371</ele>
        <time>2016-05-08T11:53:34Z</time>
      </trkpt>
      <trkpt lat="44.5065" lon="6.05617">
        <ele>757.1755371</ele>
        <time>2016-05-08T11:53:35Z</time>
      </trkpt>
      <trkpt lat="44.50668" lon="6.05609">
        <ele>755.2529297</ele>
        <time>2016-05-08T11:53:37Z</time>
      </trkpt>
      <trkpt lat="44.50697" lon="6.05592">
        <ele>752.8496094</ele>
        <time>2016-05-08T11:53:41Z</time>
      </trkpt>
      <trkpt lat="44.50721" lon="6.05583">
        <ele>750.927002</ele>
        <time>2016-05-08T11:53:44Z</time>
      </trkpt>
      <trkpt lat="44.5081" lon="6.05559">
        <ele>747.5622559</ele>
        <time>2016-05-08T11:53:54Z</time>
      </trkpt>
      <trkpt lat="44.50848" lon="6.05549">
        <ele>745.6396484</ele>
        <time>2016-05-08T11:53:58Z</time>
      </trkpt>
      <trkpt lat="44.50921" lon="6.05541">
        <ele>742.7558594</ele>
        <time>2016-05-08T11:54:05Z</time>
      </trkpt>
      <trkpt lat="44.50965" lon="6.05532">
        <ele>740.3525391</ele>
        <time>2016-05-08T11:54:09Z</time>
      </trkpt>
      <trkpt lat="44.50998" lon="6.05522">
        <ele>737.9492188</ele>
        <time>2016-05-08T11:54:12Z</time>
      </trkpt>
      <trkpt lat="44.5108" lon="6.05505">
        <ele>734.1040039</ele>
        <time>2016-05-08T11:54:20Z</time>
      </trkpt>
      <trkpt lat="44.51088" lon="6.05505">
        <ele>734.1040039</ele>
        <time>2016-05-08T11:54:21Z</time>
      </trkpt>
      <trkpt lat="44.51199" lon="6.05532">
        <ele>730.7392578</ele>
        <time>2016-05-08T11:54:36Z</time>
      </trkpt>
      <trkpt lat="44.51247" lon="6.05546">
        <ele>728.8166504</ele>
        <time>2016-05-08T11:54:42Z</time>
      </trkpt>
      <trkpt lat="44.51305" lon="6.05582">
        <ele>726.4133301</ele>
        <time>2016-05-08T11:54:49Z</time>
      </trkpt>
      <trkpt lat="44.51361" lon="6.05617">
        <ele>722.5681152</ele>
        <time>2016-05-08T11:54:55Z</time>
      </trkpt>
      <trkpt lat="44.51371" lon="6.05622">
        <ele>722.5681152</ele>
        <time>2016-05-08T11:54:56Z</time>
      </trkpt>
      <trkpt lat="44.51412" lon="6.0564">
        <ele>721.1262207</ele>
        <time>2016-05-08T11:55:00Z</time>
      </trkpt>
      <trkpt lat="44.51433" lon="6.05649">
        <ele>719.2036133</ele>
        <time>2016-05-08T11:55:02Z</time>
      </trkpt>
      <trkpt lat="44.51485" lon="6.05675">
        <ele>717.2810059</ele>
        <time>2016-05-08T11:55:07Z</time>
      </trkpt>
      <trkpt lat="44.51506" lon="6.05689">
        <ele>715.8388672</ele>
        <time>2016-05-08T11:55:09Z</time>
      </trkpt>
      <trkpt lat="44.51526" lon="6.05701">
        <ele>714.3967285</ele>
        <time>2016-05-08T11:55:11Z</time>
      </trkpt>
      <trkpt lat="44.51603" lon="6.0575">
        <ele>711.5129395</ele>
        <time>2016-05-08T11:55:19Z</time>
      </trkpt>
      <trkpt lat="44.51705" lon="6.05809">
        <ele>708.6289063</ele>
        <time>2016-05-08T11:55:31Z</time>
      </trkpt>
      <trkpt lat="44.51781" lon="6.05833">
        <ele>706.2255859</ele>
        <time>2016-05-08T11:55:40Z</time>
      </trkpt>
      <trkpt lat="44.51888" lon="6.05849">
        <ele>702.861084</ele>
        <time>2016-05-08T11:55:52Z</time>
      </trkpt>
      <trkpt lat="44.52005" lon="6.05821">
        <ele>700.9384766</ele>
        <time>2016-05-08T11:56:07Z</time>
      </trkpt>
      <trkpt lat="44.52107" lon="6.05798">
        <ele>698.0544434</ele>
        <time>2016-05-08T11:56:22Z</time>
      </trkpt>
      <trkpt lat="44.52123" lon="6.05797">
        <ele>698.0544434</ele>
        <time>2016-05-08T11:56:24Z</time>
      </trkpt>
      <trkpt lat="44.52184" lon="6.05836">
        <ele>693.7285156</ele>
        <time>2016-05-08T11:56:32Z</time>
      </trkpt>
      <trkpt lat="44.5219" lon="6.05845">
        <ele>693.7285156</ele>
        <time>2016-05-08T11:56:33Z</time>
      </trkpt>
      <trkpt lat="44.52217" lon="6.05892">
        <ele>690.3640137</ele>
        <time>2016-05-08T11:56:39Z</time>
      </trkpt>
      <trkpt lat="44.52221" lon="6.05898">
        <ele>690.3640137</ele>
        <time>2016-05-08T11:56:40Z</time>
      </trkpt>
      <trkpt lat="44.52256" lon="6.0596">
        <ele>686.9992676</ele>
        <time>2016-05-08T11:56:53Z</time>
      </trkpt>
      <trkpt lat="44.5226" lon="6.05968">
        <ele>686.9992676</ele>
        <time>2016-05-08T11:56:56Z</time>
      </trkpt>
      <trkpt lat="44.52272" lon="6.05971">
        <ele>686.9992676</ele>
        <time>2016-05-08T11:57:00Z</time>
      </trkpt>
      <trkpt lat="44.52337" lon="6.05962">
        <ele>687.9606934</ele>
        <time>2016-05-08T11:57:21Z</time>
      </trkpt>
      <trkpt lat="44.52381" lon="6.05987">
        <ele>689.4025879</ele>
        <time>2016-05-08T11:57:40Z</time>
      </trkpt>
      <trkpt lat="44.5244" lon="6.06032">
        <ele>691.3251953</ele>
        <time>2016-05-08T11:58:08Z</time>
      </trkpt>
      <trkpt lat="44.52488" lon="6.06072">
        <ele>692.767334</ele>
        <time>2016-05-08T11:58:31Z</time>
      </trkpt>
      <trkpt lat="44.5253" lon="6.06103">
        <ele>694.2092285</ele>
        <time>2016-05-08T11:58:51Z</time>
      </trkpt>
      <trkpt lat="44.52573" lon="6.06139">
        <ele>695.651123</ele>
        <time>2016-05-08T11:59:12Z</time>
      </trkpt>
      <trkpt lat="44.52609" lon="6.06168">
        <ele>696.1318359</ele>
        <time>2016-05-08T11:59:29Z</time>
      </trkpt>
      <trkpt lat="44.52651" lon="6.06201">
        <ele>697.5737305</ele>
        <time>2016-05-08T11:59:48Z</time>
      </trkpt>
      <trkpt lat="44.5269" lon="6.06227">
        <ele>699.4963379</ele>
        <time>2016-05-08T12:00:06Z</time>
      </trkpt>
      <trkpt lat="44.52728" lon="6.06257">
        <ele>700.4580078</ele>
        <time>2016-05-08T12:00:24Z</time>
      </trkpt>
      <trkpt lat="44.52772" lon="6.0628">
        <ele>702.3803711</ele>
        <time>2016-05-08T12:00:44Z</time>
      </trkpt>
      <trkpt lat="44.52812" lon="6.06254">
        <ele>703.3417969</ele>
        <time>2016-05-08T12:01:02Z</time>
      </trkpt>
      <trkpt lat="44.52847" lon="6.06204">
        <ele>704.3032227</ele>
        <time>2016-05-08T12:01:22Z</time>
      </trkpt>
      <trkpt lat="44.52892" lon="6.0618">
        <ele>705.7451172</ele>
        <time>2016-05-08T12:01:43Z</time>
      </trkpt>
      <trkpt lat="44.52926" lon="6.06174">
        <ele>707.1870117</ele>
        <time>2016-05-08T12:01:58Z</time>
      </trkpt>
      <trkpt lat="44.52964" lon="6.06165">
        <ele>708.1484375</ele>
        <time>2016-05-08T12:02:14Z</time>
      </trkpt>
      <trkpt lat="44.52985" lon="6.06163">
        <ele>708.6289063</ele>
        <time>2016-05-08T12:02:23Z</time>
      </trkpt>
      <trkpt lat="44.53023" lon="6.06171">
        <ele>710.0708008</ele>
        <time>2016-05-08T12:02:39Z</time>
      </trkpt>
      <trkpt lat="44.53069" lon="6.06185">
        <ele>711.0322266</ele>
        <time>2016-05-08T12:02:56Z</time>
      </trkpt>
      <trkpt lat="44.53133" lon="6.0621">
        <ele>712.954834</ele>
        <time>2016-05-08T12:03:21Z</time>
      </trkpt>
      <trkpt lat="44.53177" lon="6.06231">
        <ele>714.3967285</ele>
        <time>2016-05-08T12:03:40Z</time>
      </trkpt>
      <trkpt lat="44.53226" lon="6.06245">
        <ele>715.3581543</ele>
        <time>2016-05-08T12:03:58Z</time>
      </trkpt>
      <trkpt lat="44.53273" lon="6.06251">
        <ele>716.800293</ele>
        <time>2016-05-08T12:04:16Z</time>
      </trkpt>
      <trkpt lat="44.53321" lon="6.06237">
        <ele>717.7614746</ele>
        <time>2016-05-08T12:04:35Z</time>
      </trkpt>
      <trkpt lat="44.53348" lon="6.06224">
        <ele>718.7229004</ele>
        <time>2016-05-08T12:04:48Z</time>
      </trkpt>
      <trkpt lat="44.53376" lon="6.06212">
        <ele>719.2036133</ele>
        <time>2016-05-08T12:04:58Z</time>
      </trkpt>
      <trkpt lat="44.53416" lon="6.06212">
        <ele>720.6455078</ele>
        <time>2016-05-08T12:05:12Z</time>
      </trkpt>
      <trkpt lat="44.5346" lon="6.06221">
        <ele>721.6066895</ele>
        <time>2016-05-08T12:05:28Z</time>
      </trkpt>
      <trkpt lat="44.53506" lon="6.06217">
        <ele>723.0488281</ele>
        <time>2016-05-08T12:05:46Z</time>
      </trkpt>
      <trkpt lat="44.53555" lon="6.06225">
        <ele>724.0100098</ele>
        <time>2016-05-08T12:06:04Z</time>
      </trkpt>
      <trkpt lat="44.53604" lon="6.06258">
        <ele>724.9714355</ele>
        <time>2016-05-08T12:06:25Z</time>
      </trkpt>
      <trkpt lat="44.53623" lon="6.0628">
        <ele>725.4519043</ele>
        <time>2016-05-08T12:06:34Z</time>
      </trkpt>
      <trkpt lat="44.53647" lon="6.06265">
        <ele>726.4133301</ele>
        <time>2016-05-08T12:06:45Z</time>
      </trkpt>
      <trkpt lat="44.53689" lon="6.06274">
        <ele>727.3747559</ele>
        <time>2016-05-08T12:07:03Z</time>
      </trkpt>
      <trkpt lat="44.53698" lon="6.06277">
        <ele>727.3747559</ele>
        <time>2016-05-08T12:07:16Z</time>
      </trkpt>
      <trkpt lat="44.5372" lon="6.06284">
        <ele>727.8552246</ele>
        <time>2016-05-08T12:07:30Z</time>
      </trkpt>
      <trkpt lat="44.53769" lon="6.06303">
        <ele>729.2971191</ele>
        <time>2016-05-08T12:07:48Z</time>
      </trkpt>
      <trkpt lat="44.5382" lon="6.06329">
        <ele>730.2585449</ele>
        <time>2016-05-08T12:08:08Z</time>
      </trkpt>
      <trkpt lat="44.53872" lon="6.06346">
        <ele>731.2199707</ele>
        <time>2016-05-08T12:08:28Z</time>
      </trkpt>
      <trkpt lat="44.53908" lon="6.06374">
        <ele>731.2199707</ele>
        <time>2016-05-08T12:08:46Z</time>
      </trkpt>
      <trkpt lat="44.53924" lon="6.06399">
        <ele>731.2199707</ele>
        <time>2016-05-08T12:08:56Z</time>
      </trkpt>
      <trkpt lat="44.53929" lon="6.06394">
        <ele>731.7004395</ele>
        <time>2016-05-08T12:09:00Z</time>
      </trkpt>
      <trkpt lat="44.53937" lon="6.06388">
        <ele>731.7004395</ele>
        <time>2016-05-08T12:09:04Z</time>
      </trkpt>
      <trkpt lat="44.53982" lon="6.06407">
        <ele>731.7004395</ele>
        <time>2016-05-08T12:09:21Z</time>
      </trkpt>
      <trkpt lat="44.54029" lon="6.06423">
        <ele>732.6621094</ele>
        <time>2016-05-08T12:09:37Z</time>
      </trkpt>
      <trkpt lat="44.54085" lon="6.06437">
        <ele>733.1425781</ele>
        <time>2016-05-08T12:09:53Z</time>
      </trkpt>
      <trkpt lat="44.54155" lon="6.06462">
        <ele>733.1425781</ele>
        <time>2016-05-08T12:10:13Z</time>
      </trkpt>
      <trkpt lat="44.54245" lon="6.06497">
        <ele>734.5847168</ele>
        <time>2016-05-08T12:10:39Z</time>
      </trkpt>
      <trkpt lat="44.54316" lon="6.06521">
        <ele>735.0654297</ele>
        <time>2016-05-08T12:11:00Z</time>
      </trkpt>
      <trkpt lat="44.5435" lon="6.0652">
        <ele>735.5458984</ele>
        <time>2016-05-08T12:11:10Z</time>
      </trkpt>
      <trkpt lat="44.54408" lon="6.06505">
        <ele>737.4685059</ele>
        <time>2016-05-08T12:11:27Z</time>
      </trkpt>
      <trkpt lat="44.54509" lon="6.06487">
        <ele>740.3525391</ele>
        <time>2016-05-08T12:11:58Z</time>
      </trkpt>
      <trkpt lat="44.5458" lon="6.06476">
        <ele>741.7944336</ele>
        <time>2016-05-08T12:12:19Z</time>
      </trkpt>
      <trkpt lat="44.54658" lon="6.06476">
        <ele>742.7558594</ele>
        <time>2016-05-08T12:12:43Z</time>
      </trkpt>
      <trkpt lat="44.54694" lon="6.06506">
        <ele>742.2751465</ele>
        <time>2016-05-08T12:12:59Z</time>
      </trkpt>
      <trkpt lat="44.54694" lon="6.06506">
        <ele>742.2751465</ele>
        <time>2016-05-08T12:13:06Z</time>
      </trkpt>
      <trkpt lat="44.54704" lon="6.06498">
        <ele>742.7558594</ele>
        <time>2016-05-08T12:13:13Z</time>
      </trkpt>
      <trkpt lat="44.54732" lon="6.06526">
        <ele>743.2363281</ele>
        <time>2016-05-08T12:13:24Z</time>
      </trkpt>
      <trkpt lat="44.5477" lon="6.06574">
        <ele>743.2363281</ele>
        <time>2016-05-08T12:13:40Z</time>
      </trkpt>
      <trkpt lat="44.54811" lon="6.06625">
        <ele>744.1977539</ele>
        <time>2016-05-08T12:13:58Z</time>
      </trkpt>
      <trkpt lat="44.54883" lon="6.06712">
        <ele>743.717041</ele>
        <time>2016-05-08T12:14:25Z</time>
      </trkpt>
      <trkpt lat="44.54928" lon="6.06769">
        <ele>742.7558594</ele>
        <time>2016-05-08T12:14:41Z</time>
      </trkpt>
      <trkpt lat="44.54966" lon="6.06818">
        <ele>743.2363281</ele>
        <time>2016-05-08T12:14:56Z</time>
      </trkpt>
      <trkpt lat="44.55005" lon="6.06858">
        <ele>743.717041</ele>
        <time>2016-05-08T12:15:10Z</time>
      </trkpt>
      <trkpt lat="44.55042" lon="6.06906">
        <ele>743.717041</ele>
        <time>2016-05-08T12:15:24Z</time>
      </trkpt>
      <trkpt lat="44.55088" lon="6.06964">
        <ele>743.717041</ele>
        <time>2016-05-08T12:15:39Z</time>
      </trkpt>
      <trkpt lat="44.55152" lon="6.07045">
        <ele>742.7558594</ele>
        <time>2016-05-08T12:15:58Z</time>
      </trkpt>
      <trkpt lat="44.55204" lon="6.07107">
        <ele>741.7944336</ele>
        <time>2016-05-08T12:16:14Z</time>
      </trkpt>
      <trkpt lat="44.55251" lon="6.07163">
        <ele>740.3525391</ele>
        <time>2016-05-08T12:16:26Z</time>
      </trkpt>
      <trkpt lat="44.5527" lon="6.07188">
        <ele>740.3525391</ele>
        <time>2016-05-08T12:16:31Z</time>
      </trkpt>
      <trkpt lat="44.5533" lon="6.07264">
        <ele>739.8718262</ele>
        <time>2016-05-08T12:16:46Z</time>
      </trkpt>
      <trkpt lat="44.55373" lon="6.07312">
        <ele>738.9106445</ele>
        <time>2016-05-08T12:16:59Z</time>
      </trkpt>
      <trkpt lat="44.5539" lon="6.07336">
        <ele>738.9106445</ele>
        <time>2016-05-08T12:17:04Z</time>
      </trkpt>
      <trkpt lat="44.55413" lon="6.0737">
        <ele>738.4299316</ele>
        <time>2016-05-08T12:17:12Z</time>
      </trkpt>
      <trkpt lat="44.55427" lon="6.07387">
        <ele>737.9492188</ele>
        <time>2016-05-08T12:17:16Z</time>
      </trkpt>
      <trkpt lat="44.5548" lon="6.07447">
        <ele>737.9492188</ele>
        <time>2016-05-08T12:17:31Z</time>
      </trkpt>
      <trkpt lat="44.55494" lon="6.07462">
        <ele>736.987793</ele>
        <time>2016-05-08T12:17:35Z</time>
      </trkpt>
      <trkpt lat="44.55509" lon="6.0748">
        <ele>736.987793</ele>
        <time>2016-05-08T12:17:40Z</time>
      </trkpt>
      <trkpt lat="44.5556" lon="6.07547">
        <ele>736.5073242</ele>
        <time>2016-05-08T12:17:59Z</time>
      </trkpt>
      <trkpt lat="44.55562" lon="6.0755">
        <ele>736.5073242</ele>
        <time>2016-05-08T12:18:00Z</time>
      </trkpt>
      <trkpt lat="44.55584" lon="6.07581">
        <ele>736.5073242</ele>
        <time>2016-05-08T12:18:09Z</time>
      </trkpt>
      <trkpt lat="44.55601" lon="6.0757">
        <ele>736.5073242</ele>
        <time>2016-05-08T12:18:16Z</time>
      </trkpt>
      <trkpt lat="44.55624" lon="6.07529">
        <ele>737.4685059</ele>
        <time>2016-05-08T12:18:28Z</time>
      </trkpt>
      <trkpt lat="44.55663" lon="6.0756">
        <ele>737.4685059</ele>
        <time>2016-05-08T12:18:42Z</time>
      </trkpt>
      <trkpt lat="44.55688" lon="6.0757">
        <ele>738.4299316</ele>
        <time>2016-05-08T12:18:53Z</time>
      </trkpt>
      <trkpt lat="44.55715" lon="6.07526">
        <ele>740.3525391</ele>
        <time>2016-05-08T12:19:08Z</time>
      </trkpt>
      <trkpt lat="44.55742" lon="6.07469">
        <ele>742.2751465</ele>
        <time>2016-05-08T12:19:27Z</time>
      </trkpt>
      <trkpt lat="44.55763" lon="6.07453">
        <ele>743.2363281</ele>
        <time>2016-05-08T12:19:37Z</time>
      </trkpt>
      <trkpt lat="44.55781" lon="6.07454">
        <ele>743.717041</ele>
        <time>2016-05-08T12:19:44Z</time>
      </trkpt>
      <trkpt lat="44.55789" lon="6.07457">
        <ele>745.1589355</ele>
        <time>2016-05-08T12:19:53Z</time>
      </trkpt>
      <trkpt lat="44.55808" lon="6.07449">
        <ele>745.6396484</ele>
        <time>2016-05-08T12:20:01Z</time>
      </trkpt>
      <trkpt lat="44.55843" lon="6.07465">
        <ele>747.081543</ele>
        <time>2016-05-08T12:20:13Z</time>
      </trkpt>
      <trkpt lat="44.55869" lon="6.0752">
        <ele>748.0432129</ele>
        <time>2016-05-08T12:20:30Z</time>
      </trkpt>
      <trkpt lat="44.55869" lon="6.07524">
        <ele>748.0432129</ele>
        <time>2016-05-08T12:20:57Z</time>
      </trkpt>
    </trkseg>
  </trk>
</gpx>